<?xml version='1.0' encoding='UTF-8'?><gpx version="1.1" creator="JPX - https://github.com/jenetics/jpx" xmlns="http://www.topografix.com/GPX/1/1"><trk><trkseg><trkpt lat="27.91006516649882" lon="-15.540284491212546"><ele>693.0</ele><time>2026-05-04T17:16:19.999Z</time></trkpt><trkpt lat="27.910010478090697" lon="-15.540334735727585"><ele>693.0</ele><time>2026-05-04T17:16:24.999Z</time></trkpt><trkpt lat="27.90994823336288" lon="-15.540368952007293"><ele>693.0</ele><time>2026-05-04T17:16:29.999Z</time></trkpt><trkpt lat="27.909912744433804" lon="-15.540428895636264"><ele>693.0</ele><time>2026-05-04T17:16:35.998Z</time></trkpt><trkpt lat="27.90984501910845" lon="-15.540454105047797"><ele>693.0</ele><time>2026-05-04T17:16:42.998Z</time></trkpt><trkpt lat="27.909774333949645" lon="-15.54047955609819"><ele>693.0</ele><time>2026-05-04T17:16:48.998Z</time></trkpt><trkpt lat="27.909696839927236" lon="-15.54049151033148"><ele>693.0</ele><time>2026-05-04T17:16:53.999Z</time></trkpt><trkpt lat="27.909633646883666" lon="-15.54050271938721"><ele>692.7142857142857</ele><time>2026-05-04T17:17:02.999Z</time></trkpt><trkpt lat="27.909591046731197" lon="-15.540560687159406"><ele>692.4285714285714</ele><time>2026-05-04T17:19:24.999Z</time></trkpt><trkpt lat="27.909601902022782" lon="-15.54048950362712"><ele>692.1428571428571</ele><time>2026-05-04T17:21:03.999Z</time></trkpt><trkpt lat="27.909517311045622" lon="-15.540515811278047"><ele>691.8571428571429</ele><time>2026-05-04T17:21:43Z</time></trkpt><trkpt lat="27.909456839141324" lon="-15.540557886470419"><ele>691.5714285714286</ele><time>2026-05-04T17:21:50Z</time></trkpt><trkpt lat="27.90939468467597" lon="-15.540585843842095"><ele>691.2857142857142</ele><time>2026-05-04T17:21:56.999Z</time></trkpt><trkpt lat="27.90932324160348" lon="-15.540623731118734"><ele>691.0</ele><time>2026-05-04T17:22:02.999Z</time></trkpt><trkpt lat="27.909271619905912" lon="-15.540668521939493"><ele>690.4285714285713</ele><time>2026-05-04T17:22:06.999Z</time></trkpt><trkpt lat="27.909205928400524" lon="-15.540659661323916"><ele>689.8571428571429</ele><time>2026-05-04T17:22:12.999Z</time></trkpt><trkpt lat="27.909166428378747" lon="-15.540591224958247"><ele>689.2857142857142</ele><time>2026-05-04T17:22:17.999Z</time></trkpt><trkpt lat="27.909121752166623" lon="-15.54053945738939"><ele>688.7142857142857</ele><time>2026-05-04T17:22:21.999Z</time></trkpt><trkpt lat="27.909085487671305" lon="-15.540472786044065"><ele>688.1428571428571</ele><time>2026-05-04T17:22:28.999Z</time></trkpt><trkpt lat="27.909042947133276" lon="-15.540404761342653"><ele>687.5714285714286</ele><time>2026-05-04T17:22:34.999Z</time></trkpt><trkpt lat="27.908991999472192" lon="-15.540356824707084"><ele>687.0</ele><time>2026-05-04T17:22:40.999Z</time></trkpt><trkpt lat="27.90892644920916" lon="-15.540318516326694"><ele>687.0</ele><time>2026-05-04T17:22:45.999Z</time></trkpt><trkpt lat="27.908878253521003" lon="-15.540272419931163"><ele>687.0</ele><time>2026-05-04T17:22:51.999Z</time></trkpt><trkpt lat="27.90883225119281" lon="-15.540210298045862"><ele>687.0</ele><time>2026-05-04T17:22:58.999Z</time></trkpt><trkpt lat="27.908779618136048" lon="-15.54016276646607"><ele>687.0</ele><time>2026-05-04T17:23:07.999Z</time></trkpt><trkpt lat="27.90870622184629" lon="-15.540127294615285"><ele>687.0</ele><time>2026-05-04T17:23:11.999Z</time></trkpt><trkpt lat="27.908696956799222" lon="-15.540054863622228"><ele>687.0</ele><time>2026-05-04T17:23:24Z</time></trkpt><trkpt lat="27.908622982389456" lon="-15.540044421153008"><ele>687.0</ele><time>2026-05-04T17:23:48Z</time></trkpt><trkpt lat="27.908552825204765" lon="-15.540047098999565"><ele>687.0</ele><time>2026-05-04T17:23:53Z</time></trkpt><trkpt lat="27.908479177436508" lon="-15.540033072086086"><ele>687.0</ele><time>2026-05-04T17:23:59Z</time></trkpt><trkpt lat="27.908401703669682" lon="-15.540032424290857"><ele>687.0</ele><time>2026-05-04T17:24:03.999Z</time></trkpt><trkpt lat="27.908346128997117" lon="-15.539989124209262"><ele>687.0</ele><time>2026-05-04T17:24:10.999Z</time></trkpt><trkpt lat="27.908278736075697" lon="-15.540006349610996"><ele>687.0</ele><time>2026-05-04T17:24:18.999Z</time></trkpt><trkpt lat="27.908224083365578" lon="-15.540051527721763"><ele>687.0</ele><time>2026-05-04T17:24:26.999Z</time></trkpt><trkpt lat="27.908187741017155" lon="-15.540121312910626"><ele>687.0</ele><time>2026-05-04T17:24:32.999Z</time></trkpt><trkpt lat="27.90814160323559" lon="-15.540173903401286"><ele>685.8571428571429</ele><time>2026-05-04T17:24:38.999Z</time></trkpt><trkpt lat="27.908085379412945" lon="-15.540219791724148"><ele>684.7142857142857</ele><time>2026-05-04T17:24:44.999Z</time></trkpt><trkpt lat="27.908016586975886" lon="-15.540196345937431"><ele>683.5714285714286</ele><time>2026-05-04T17:24:53.999Z</time></trkpt><trkpt lat="27.90795436467129" lon="-15.540168654314249"><ele>682.4285714285714</ele><time>2026-05-04T17:25:03.999Z</time></trkpt><trkpt lat="27.907897906276734" lon="-15.540132919628007"><ele>681.2857142857142</ele><time>2026-05-04T17:25:10.999Z</time></trkpt><trkpt lat="27.907865229164727" lon="-15.540064746764351"><ele>680.1428571428571</ele><time>2026-05-04T17:25:20Z</time></trkpt><trkpt lat="27.90786296441832" lon="-15.539991106548937"><ele>679.0</ele><time>2026-05-04T17:25:29Z</time></trkpt><trkpt lat="27.907794804561775" lon="-15.54002898288926"><ele>679.0</ele><time>2026-05-04T17:25:43Z</time></trkpt><trkpt lat="27.907735923372286" lon="-15.540070644097643"><ele>679.0</ele><time>2026-05-04T17:25:53Z</time></trkpt><trkpt lat="27.907691502780978" lon="-15.540008104061604"><ele>679.0</ele><time>2026-05-04T17:26:03Z</time></trkpt><trkpt lat="27.90770569809738" lon="-15.539931827811005"><ele>679.0</ele><time>2026-05-04T17:26:12Z</time></trkpt><trkpt lat="27.90771673180511" lon="-15.539856387301182"><ele>679.0</ele><time>2026-05-04T17:26:20Z</time></trkpt><trkpt lat="27.90773396781676" lon="-15.539782884883508"><ele>679.0</ele><time>2026-05-04T17:26:26.999Z</time></trkpt><trkpt lat="27.907744459307445" lon="-15.539706678119433"><ele>679.0</ele><time>2026-05-04T17:26:33.999Z</time></trkpt><trkpt lat="27.90776982864962" lon="-15.539635761124341"><ele>679.0</ele><time>2026-05-04T17:26:40.999Z</time></trkpt><trkpt lat="27.90780395009931" lon="-15.53956655062438"><ele>679.0</ele><time>2026-05-04T17:26:46.999Z</time></trkpt><trkpt lat="27.907828820905518" lon="-15.539499213133363"><ele>679.0</ele><time>2026-05-04T17:26:51.999Z</time></trkpt><trkpt lat="27.90785983361177" lon="-15.539435375557662"><ele>679.0</ele><time>2026-05-04T17:26:57.999Z</time></trkpt><trkpt lat="27.90787072364184" lon="-15.539361884858288"><ele>679.0</ele><time>2026-05-04T17:27:03.999Z</time></trkpt><trkpt lat="27.90783877993454" lon="-15.539295337666509"><ele>679.0</ele><time>2026-05-04T17:27:09.999Z</time></trkpt><trkpt lat="27.907775250443553" lon="-15.539253058810045"><ele>679.0</ele><time>2026-05-04T17:27:15.999Z</time></trkpt><trkpt lat="27.907708144282555" lon="-15.539243841931341"><ele>679.2857142857143</ele><time>2026-05-04T17:27:20.999Z</time></trkpt><trkpt lat="27.907642792960075" lon="-15.539222806718787"><ele>679.5714285714286</ele><time>2026-05-04T17:27:27Z</time></trkpt><trkpt lat="27.907576565381387" lon="-15.539213234614534"><ele>679.8571428571429</ele><time>2026-05-04T17:27:33Z</time></trkpt><trkpt lat="27.90750968510228" lon="-15.539217730769119"><ele>680.1428571428571</ele><time>2026-05-04T17:27:38Z</time></trkpt><trkpt lat="27.907446512502236" lon="-15.53923493154709"><ele>680.4285714285714</ele><time>2026-05-04T17:27:44Z</time></trkpt><trkpt lat="27.90738541077692" lon="-15.539270083409688"><ele>680.7142857142858</ele><time>2026-05-04T17:27:50Z</time></trkpt><trkpt lat="27.90733086409884" lon="-15.539309999679917"><ele>681.0</ele><time>2026-05-04T17:27:55Z</time></trkpt><trkpt lat="27.907276102300138" lon="-15.539359750689558"><ele>679.0</ele><time>2026-05-04T17:28:00Z</time></trkpt><trkpt lat="27.907210205228395" lon="-15.539398689599459"><ele>677.0</ele><time>2026-05-04T17:28:06Z</time></trkpt><trkpt lat="27.907138731253017" lon="-15.539433296424628"><ele>675.0</ele><time>2026-05-04T17:28:11Z</time></trkpt><trkpt lat="27.907074187787657" lon="-15.53946005503805"><ele>673.0</ele><time>2026-05-04T17:28:18Z</time></trkpt><trkpt lat="27.907002564655034" lon="-15.539486278131228"><ele>671.0</ele><time>2026-05-04T17:28:24Z</time></trkpt><trkpt lat="27.906932350812404" lon="-15.539512250243767"><ele>669.0</ele><time>2026-05-04T17:28:30Z</time></trkpt><trkpt lat="27.906855294757094" lon="-15.539536432682937"><ele>669.0</ele><time>2026-05-04T17:28:37Z</time></trkpt><trkpt lat="27.90678520052114" lon="-15.539543030892915"><ele>669.0</ele><time>2026-05-04T17:28:41.999Z</time></trkpt><trkpt lat="27.906719136191985" lon="-15.539536224689545"><ele>669.0</ele><time>2026-05-04T17:28:47.999Z</time></trkpt><trkpt lat="27.906652606607725" lon="-15.539506521655781"><ele>669.0</ele><time>2026-05-04T17:28:53.999Z</time></trkpt><trkpt lat="27.90660352649379" lon="-15.539460889713713"><ele>669.0</ele><time>2026-05-04T17:28:58.999Z</time></trkpt><trkpt lat="27.906561869757645" lon="-15.539404374377446"><ele>669.0</ele><time>2026-05-04T17:29:05.999Z</time></trkpt><trkpt lat="27.906543202873106" lon="-15.539332173343444"><ele>669.0</ele><time>2026-05-04T17:29:11.999Z</time></trkpt><trkpt lat="27.90653151642973" lon="-15.53926212099715"><ele>668.2857142857143</ele><time>2026-05-04T17:29:17.999Z</time></trkpt><trkpt lat="27.906517829526823" lon="-15.539190402359875"><ele>667.5714285714286</ele><time>2026-05-04T17:29:22.999Z</time></trkpt><trkpt lat="27.906494399121442" lon="-15.539113320365178"><ele>666.8571428571429</ele><time>2026-05-04T17:29:28.999Z</time></trkpt><trkpt lat="27.90647061181667" lon="-15.539042056144988"><ele>666.1428571428571</ele><time>2026-05-04T17:29:35Z</time></trkpt><trkpt lat="27.90642510486802" lon="-15.538991139764045"><ele>665.4285714285714</ele><time>2026-05-04T17:29:43Z</time></trkpt><trkpt lat="27.90636498455133" lon="-15.538950012080557"><ele>664.7142857142857</ele><time>2026-05-04T17:29:50Z</time></trkpt><trkpt lat="27.90630329764583" lon="-15.538913792257357"><ele>664.0</ele><time>2026-05-04T17:29:57Z</time></trkpt><trkpt lat="27.90623535234625" lon="-15.538889101506385"><ele>664.0</ele><time>2026-05-04T17:30:05Z</time></trkpt><trkpt lat="27.906170770358315" lon="-15.538880969935247"><ele>664.0</ele><time>2026-05-04T17:30:13Z</time></trkpt><trkpt lat="27.906106331594557" lon="-15.538865488927248"><ele>664.0</ele><time>2026-05-04T17:30:21Z</time></trkpt><trkpt lat="27.906039909094037" lon="-15.538881193935788"><ele>664.0</ele><time>2026-05-04T17:30:29Z</time></trkpt><trkpt lat="27.905977152568276" lon="-15.538858016160683"><ele>664.0</ele><time>2026-05-04T17:30:36Z</time></trkpt><trkpt lat="27.905919331715022" lon="-15.538822038977308"><ele>664.0</ele><time>2026-05-04T17:30:42Z</time></trkpt><trkpt lat="27.905861953397704" lon="-15.53878341350103"><ele>664.0</ele><time>2026-05-04T17:30:47.999Z</time></trkpt><trkpt lat="27.905804265252616" lon="-15.538754098541329"><ele>664.4285714285714</ele><time>2026-05-04T17:31:00.999Z</time></trkpt><trkpt lat="27.905739534446205" lon="-15.538719668801821"><ele>664.8571428571429</ele><time>2026-05-04T17:31:22.999Z</time></trkpt><trkpt lat="27.90567773423238" lon="-15.538680900484449"><ele>665.2857142857143</ele><time>2026-05-04T17:31:28.999Z</time></trkpt><trkpt lat="27.905636455452903" lon="-15.53861020599945"><ele>665.7142857142858</ele><time>2026-05-04T17:31:37Z</time></trkpt><trkpt lat="27.905559427067846" lon="-15.5385992302313"><ele>666.1428571428571</ele><time>2026-05-04T17:31:45Z</time></trkpt><trkpt lat="27.905500339866165" lon="-15.538558558194126"><ele>666.5714285714287</ele><time>2026-05-04T17:31:53Z</time></trkpt><trkpt lat="27.9054372981239" lon="-15.538535123471517"><ele>667.0</ele><time>2026-05-04T17:32:00Z</time></trkpt><trkpt lat="27.905377494810626" lon="-15.538498779950803"><ele>667.0000000000001</ele><time>2026-05-04T17:32:06Z</time></trkpt><trkpt lat="27.90531636455964" lon="-15.53846177209878"><ele>667.0</ele><time>2026-05-04T17:32:13Z</time></trkpt><trkpt lat="27.905247650487226" lon="-15.538436754765806"><ele>667.0</ele><time>2026-05-04T17:32:21Z</time></trkpt><trkpt lat="27.90517549924544" lon="-15.53842220349412"><ele>667.0</ele><time>2026-05-04T17:32:29Z</time></trkpt><trkpt lat="27.905112497294628" lon="-15.538378445823605"><ele>667.0</ele><time>2026-05-04T17:32:36Z</time></trkpt><trkpt lat="27.905049814392488" lon="-15.53835042721426"><ele>667.0000000000001</ele><time>2026-05-04T17:32:43Z</time></trkpt><trkpt lat="27.90499653142307" lon="-15.538303498618491"><ele>667.0</ele><time>2026-05-04T17:32:50Z</time></trkpt><trkpt lat="27.904931884323588" lon="-15.53828717287728"><ele>665.5714285714287</ele><time>2026-05-04T17:33:01Z</time></trkpt><trkpt lat="27.9048804753375" lon="-15.538238017740747"><ele>664.1428571428571</ele><time>2026-05-04T17:33:08Z</time></trkpt><trkpt lat="27.90485535970058" lon="-15.538170351574816"><ele>662.7142857142858</ele><time>2026-05-04T17:33:16Z</time></trkpt><trkpt lat="27.904817588159034" lon="-15.538088677630524"><ele>661.2857142857143</ele><time>2026-05-04T17:33:23.999Z</time></trkpt><trkpt lat="27.904814569446728" lon="-15.538016709620463"><ele>659.8571428571429</ele><time>2026-05-04T17:33:30.999Z</time></trkpt><trkpt lat="27.90480840465328" lon="-15.537933681580437"><ele>658.4285714285714</ele><time>2026-05-04T17:33:52Z</time></trkpt><trkpt lat="27.904776786750254" lon="-15.537870575960104"><ele>657.0</ele><time>2026-05-04T17:33:58Z</time></trkpt><trkpt lat="27.904722841186903" lon="-15.53781545965706"><ele>657.0</ele><time>2026-05-04T17:34:04Z</time></trkpt><trkpt lat="27.90466622064073" lon="-15.537767060137995"><ele>657.0</ele><time>2026-05-04T17:34:10Z</time></trkpt><trkpt lat="27.904616354818007" lon="-15.537721782125939"><ele>657.0</ele><time>2026-05-04T17:34:16Z</time></trkpt><trkpt lat="27.904555256040016" lon="-15.53769018984423"><ele>657.0</ele><time>2026-05-04T17:34:22Z</time></trkpt><trkpt lat="27.904499823857442" lon="-15.537648231730326"><ele>657.0</ele><time>2026-05-04T17:34:29Z</time></trkpt><trkpt lat="27.9044393820492" lon="-15.53761546437646"><ele>657.0</ele><time>2026-05-04T17:34:35Z</time></trkpt><trkpt lat="27.904385913493794" lon="-15.537572932847276"><ele>657.0</ele><time>2026-05-04T17:34:41Z</time></trkpt><trkpt lat="27.904332312719916" lon="-15.53753460393864"><ele>657.0</ele><time>2026-05-04T17:34:46Z</time></trkpt><trkpt lat="27.904274092794964" lon="-15.53749529882191"><ele>657.0</ele><time>2026-05-04T17:34:52Z</time></trkpt><trkpt lat="27.90420796542722" lon="-15.537455895576246"><ele>657.0</ele><time>2026-05-04T17:34:59Z</time></trkpt><trkpt lat="27.904158761746487" lon="-15.537411127652945"><ele>657.0</ele><time>2026-05-04T17:35:05Z</time></trkpt><trkpt lat="27.9041065942367" lon="-15.53736239731827"><ele>657.0</ele><time>2026-05-04T17:35:11Z</time></trkpt><trkpt lat="27.904056641107296" lon="-15.537310859104869"><ele>657.0</ele><time>2026-05-04T17:35:18Z</time></trkpt><trkpt lat="27.904000418592084" lon="-15.537269336123426"><ele>657.0</ele><time>2026-05-04T17:35:24.999Z</time></trkpt><trkpt lat="27.903935267036594" lon="-15.537236431162786"><ele>655.1428571428571</ele><time>2026-05-04T17:35:30.999Z</time></trkpt><trkpt lat="27.903869417383852" lon="-15.537211972256067"><ele>653.2857142857143</ele><time>2026-05-04T17:35:36.999Z</time></trkpt><trkpt lat="27.903803072858416" lon="-15.53719860373271"><ele>651.4285714285714</ele><time>2026-05-04T17:35:42.999Z</time></trkpt><trkpt lat="27.903732848550536" lon="-15.537208382274077"><ele>649.5714285714286</ele><time>2026-05-04T17:35:49.001Z</time></trkpt><trkpt lat="27.903658767625206" lon="-15.53721396490779"><ele>647.7142857142858</ele><time>2026-05-04T17:35:57.001Z</time></trkpt><trkpt lat="27.90360152637916" lon="-15.537182451811205"><ele>645.8571428571429</ele><time>2026-05-04T17:36:02.001Z</time></trkpt><trkpt lat="27.903557292320606" lon="-15.537123051008281"><ele>644.0</ele><time>2026-05-04T17:36:09Z</time></trkpt><trkpt lat="27.90349345613037" lon="-15.537087965591525"><ele>644.0</ele><time>2026-05-04T17:36:17Z</time></trkpt><trkpt lat="27.90346797422332" lon="-15.537158563402883"><ele>644.0</ele><time>2026-05-04T17:36:31Z</time></trkpt><trkpt lat="27.903406823515706" lon="-15.537185383224406"><ele>644.0</ele><time>2026-05-04T17:36:41Z</time></trkpt><trkpt lat="27.903348212431514" lon="-15.537229076578011"><ele>644.0</ele><time>2026-05-04T17:36:53Z</time></trkpt><trkpt lat="27.903282780657236" lon="-15.537246496107338"><ele>644.0</ele><time>2026-05-04T17:37:08Z</time></trkpt><trkpt lat="27.903218019793673" lon="-15.537256943046176"><ele>644.0</ele><time>2026-05-04T17:37:20Z</time></trkpt><trkpt lat="27.90314814091549" lon="-15.537264914319108"><ele>644.0</ele><time>2026-05-04T17:37:27Z</time></trkpt><trkpt lat="27.903089084797976" lon="-15.537227637564348"><ele>642.5714285714286</ele><time>2026-05-04T17:37:34Z</time></trkpt><trkpt lat="27.903026235855364" lon="-15.537239775760641"><ele>641.1428571428571</ele><time>2026-05-04T17:37:40.999Z</time></trkpt><trkpt lat="27.902959147270504" lon="-15.537255494255916"><ele>639.7142857142858</ele><time>2026-05-04T17:37:47.999Z</time></trkpt><trkpt lat="27.90289349824794" lon="-15.537268891032966"><ele>638.2857142857142</ele><time>2026-05-04T17:37:54.001Z</time></trkpt><trkpt lat="27.902831831348905" lon="-15.537285260423804"><ele>636.8571428571429</ele><time>2026-05-04T17:38:00.001Z</time></trkpt><trkpt lat="27.902762050378723" lon="-15.53727740774066"><ele>635.4285714285714</ele><time>2026-05-04T17:38:05.001Z</time></trkpt><trkpt lat="27.902697418261948" lon="-15.537262367017593"><ele>634.0</ele><time>2026-05-04T17:38:11.001Z</time></trkpt><trkpt lat="27.902632518425776" lon="-15.537243811853266"><ele>632.4285714285714</ele><time>2026-05-04T17:38:18Z</time></trkpt><trkpt lat="27.902570142462096" lon="-15.537213657081333"><ele>630.8571428571429</ele><time>2026-05-04T17:38:24Z</time></trkpt><trkpt lat="27.90249969176194" lon="-15.53719127575583"><ele>629.2857142857142</ele><time>2026-05-04T17:38:30Z</time></trkpt><trkpt lat="27.90243266650274" lon="-15.537184565784774"><ele>627.7142857142858</ele><time>2026-05-04T17:38:36Z</time></trkpt><trkpt lat="27.902364639229955" lon="-15.537185440795753"><ele>626.1428571428571</ele><time>2026-05-04T17:38:42Z</time></trkpt><trkpt lat="27.902292930770862" lon="-15.537183304501726"><ele>624.5714285714286</ele><time>2026-05-04T17:38:49Z</time></trkpt><trkpt lat="27.90221535725694" lon="-15.53717908082683"><ele>623.0</ele><time>2026-05-04T17:38:56Z</time></trkpt><trkpt lat="27.902150590611985" lon="-15.537183476200264"><ele>623.0</ele><time>2026-05-04T17:39:02Z</time></trkpt><trkpt lat="27.902086943722356" lon="-15.537188718552418"><ele>623.0</ele><time>2026-05-04T17:39:08Z</time></trkpt><trkpt lat="27.902019803076882" lon="-15.537176927180582"><ele>623.0</ele><time>2026-05-04T17:39:15Z</time></trkpt><trkpt lat="27.90195659849138" lon="-15.537158586687827"><ele>623.0</ele><time>2026-05-04T17:39:22Z</time></trkpt><trkpt lat="27.901893559223886" lon="-15.537157037611792"><ele>623.0</ele><time>2026-05-04T17:39:28Z</time></trkpt><trkpt lat="27.90183047638434" lon="-15.537147799835921"><ele>623.0</ele><time>2026-05-04T17:39:35.999Z</time></trkpt><trkpt lat="27.90176101945582" lon="-15.53714277107354"><ele>623.0</ele><time>2026-05-04T17:39:42.999Z</time></trkpt><trkpt lat="27.901696939782145" lon="-15.537133533761272"><ele>622.8571428571429</ele><time>2026-05-04T17:39:51.999Z</time></trkpt><trkpt lat="27.901626346212673" lon="-15.537132251860408"><ele>622.7142857142858</ele><time>2026-05-04T17:40:38Z</time></trkpt><trkpt lat="27.901558799683198" lon="-15.53710923863094"><ele>622.5714285714286</ele><time>2026-05-04T17:40:45Z</time></trkpt><trkpt lat="27.901496146569247" lon="-15.53709935784031"><ele>622.4285714285714</ele><time>2026-05-04T17:40:51Z</time></trkpt><trkpt lat="27.901435725549625" lon="-15.537075028757668"><ele>622.2857142857143</ele><time>2026-05-04T17:40:57Z</time></trkpt><trkpt lat="27.901376575857316" lon="-15.537040920097475"><ele>622.1428571428571</ele><time>2026-05-04T17:41:04Z</time></trkpt><trkpt lat="27.901315895510653" lon="-15.536991724977282"><ele>622.0</ele><time>2026-05-04T17:41:11Z</time></trkpt><trkpt lat="27.901261140837665" lon="-15.536942822666894"><ele>621.5714285714286</ele><time>2026-05-04T17:41:18Z</time></trkpt><trkpt lat="27.90120969069315" lon="-15.536899484973873"><ele>621.1428571428572</ele><time>2026-05-04T17:41:23.999Z</time></trkpt><trkpt lat="27.901151451386056" lon="-15.536865715465556"><ele>620.7142857142858</ele><time>2026-05-04T17:41:28.999Z</time></trkpt><trkpt lat="27.901097026351973" lon="-15.53681322331247"><ele>620.2857142857142</ele><time>2026-05-04T17:41:34.999Z</time></trkpt><trkpt lat="27.901041941910606" lon="-15.536775487005219"><ele>619.8571428571429</ele><time>2026-05-04T17:41:41.999Z</time></trkpt><trkpt lat="27.900987190127378" lon="-15.536736729157326"><ele>619.4285714285714</ele><time>2026-05-04T17:41:48.999Z</time></trkpt><trkpt lat="27.9009235640501" lon="-15.536698140266655"><ele>619.0</ele><time>2026-05-04T17:41:55.999Z</time></trkpt><trkpt lat="27.900862429610072" lon="-15.536675388882621"><ele>619.0</ele><time>2026-05-04T17:42:01.999Z</time></trkpt><trkpt lat="27.900802704437513" lon="-15.536649975447201"><ele>619.0</ele><time>2026-05-04T17:42:08Z</time></trkpt><trkpt lat="27.90074389621311" lon="-15.536624495216932"><ele>619.0</ele><time>2026-05-04T17:42:14Z</time></trkpt><trkpt lat="27.900676391390647" lon="-15.536584409800529"><ele>619.0</ele><time>2026-05-04T17:42:21Z</time></trkpt><trkpt lat="27.900622158009888" lon="-15.536547149546978"><ele>619.0</ele><time>2026-05-04T17:42:27Z</time></trkpt><trkpt lat="27.90056660627534" lon="-15.53649945011358"><ele>619.0</ele><time>2026-05-04T17:42:35Z</time></trkpt><trkpt lat="27.900512802238495" lon="-15.536448715440555"><ele>619.0</ele><time>2026-05-04T17:42:42Z</time></trkpt><trkpt lat="27.900457689496054" lon="-15.53640027557776"><ele>619.0</ele><time>2026-05-04T17:42:59Z</time></trkpt><trkpt lat="27.900390362616047" lon="-15.536370039326904"><ele>619.0</ele><time>2026-05-04T17:43:05Z</time></trkpt><trkpt lat="27.90032837158369" lon="-15.536344820731758"><ele>619.0</ele><time>2026-05-04T17:43:10.999Z</time></trkpt><trkpt lat="27.900261327209734" lon="-15.536336050089968"><ele>619.0</ele><time>2026-05-04T17:43:17.999Z</time></trkpt><trkpt lat="27.900198205792854" lon="-15.53634779056578"><ele>619.0</ele><time>2026-05-04T17:43:23.999Z</time></trkpt><trkpt lat="27.900135281552014" lon="-15.536364167846543"><ele>619.0</ele><time>2026-05-04T17:43:30.999Z</time></trkpt><trkpt lat="27.90006914931554" lon="-15.536381315471065"><ele>619.0</ele><time>2026-05-04T17:43:36.999Z</time></trkpt><trkpt lat="27.899997739329304" lon="-15.536388519555683"><ele>618.0</ele><time>2026-05-04T17:43:42.999Z</time></trkpt><trkpt lat="27.899930801871097" lon="-15.536402755407815"><ele>617.0</ele><time>2026-05-04T17:43:48.999Z</time></trkpt><trkpt lat="27.899862841643092" lon="-15.536415236995522"><ele>616.0</ele><time>2026-05-04T17:43:54.999Z</time></trkpt><trkpt lat="27.89979480667521" lon="-15.536418912840595"><ele>615.0</ele><time>2026-05-04T17:44:00.999Z</time></trkpt><trkpt lat="27.899727884484754" lon="-15.536411428124676"><ele>614.0</ele><time>2026-05-04T17:44:06.999Z</time></trkpt><trkpt lat="27.89965778216967" lon="-15.536400547219158"><ele>613.0</ele><time>2026-05-04T17:44:13Z</time></trkpt><trkpt lat="27.89958985209834" lon="-15.536383526058243"><ele>612.0</ele><time>2026-05-04T17:44:19Z</time></trkpt><trkpt lat="27.899529404481545" lon="-15.536360618426556"><ele>612.0</ele><time>2026-05-04T17:44:25Z</time></trkpt><trkpt lat="27.89946477828413" lon="-15.536327990657067"><ele>612.0</ele><time>2026-05-04T17:44:32Z</time></trkpt><trkpt lat="27.899408840721232" lon="-15.536285643151796"><ele>612.0</ele><time>2026-05-04T17:44:38Z</time></trkpt><trkpt lat="27.899344503786" lon="-15.536251827636494"><ele>612.0</ele><time>2026-05-04T17:44:45Z</time></trkpt><trkpt lat="27.899292818511714" lon="-15.536202670162032"><ele>612.0</ele><time>2026-05-04T17:44:51Z</time></trkpt><trkpt lat="27.89925095373508" lon="-15.536135738160354"><ele>612.0</ele><time>2026-05-04T17:44:59Z</time></trkpt><trkpt lat="27.899213177445663" lon="-15.536062313658906"><ele>612.0</ele><time>2026-05-04T17:45:06Z</time></trkpt><trkpt lat="27.8991923017889" lon="-15.535983472220641"><ele>612.8571428571429</ele><time>2026-05-04T17:45:12.999Z</time></trkpt><trkpt lat="27.899165596291514" lon="-15.535908986780795"><ele>613.7142857142858</ele><time>2026-05-04T17:45:18.999Z</time></trkpt><trkpt lat="27.899140346031103" lon="-15.535829768152478"><ele>614.5714285714287</ele><time>2026-05-04T17:45:24.999Z</time></trkpt><trkpt lat="27.899123314788426" lon="-15.535750050835059"><ele>615.4285714285714</ele><time>2026-05-04T17:45:30.999Z</time></trkpt><trkpt lat="27.89910637919457" lon="-15.535676294712625"><ele>616.2857142857143</ele><time>2026-05-04T17:45:36.999Z</time></trkpt><trkpt lat="27.89909551961575" lon="-15.535601469362868"><ele>617.1428571428572</ele><time>2026-05-04T17:45:42.999Z</time></trkpt><trkpt lat="27.899085642899692" lon="-15.535519516938468"><ele>618.0</ele><time>2026-05-04T17:45:49.999Z</time></trkpt><trkpt lat="27.89907241369923" lon="-15.53544431100583"><ele>618.1428571428572</ele><time>2026-05-04T17:45:56.999Z</time></trkpt><trkpt lat="27.899061362465247" lon="-15.53536864100069"><ele>618.2857142857143</ele><time>2026-05-04T17:46:03.999Z</time></trkpt><trkpt lat="27.899024558691693" lon="-15.535303299264935"><ele>618.4285714285714</ele><time>2026-05-04T17:46:09.999Z</time></trkpt><trkpt lat="27.899004090887296" lon="-15.535225780886961"><ele>618.5714285714287</ele><time>2026-05-04T17:46:15.999Z</time></trkpt><trkpt lat="27.89897851517083" lon="-15.535148531739633"><ele>618.7142857142858</ele><time>2026-05-04T17:46:22Z</time></trkpt><trkpt lat="27.898921686266714" lon="-15.535106286052072"><ele>618.8571428571429</ele><time>2026-05-04T17:46:28Z</time></trkpt><trkpt lat="27.89886745777275" lon="-15.535067139888204"><ele>619.0</ele><time>2026-05-04T17:46:34Z</time></trkpt><trkpt lat="27.898799164863767" lon="-15.535039882924275"><ele>619.0</ele><time>2026-05-04T17:46:41Z</time></trkpt><trkpt lat="27.898734415422815" lon="-15.535027957694103"><ele>619.0</ele><time>2026-05-04T17:46:48Z</time></trkpt><trkpt lat="27.898658629673562" lon="-15.53501671028789"><ele>619.0</ele><time>2026-05-04T17:46:54Z</time></trkpt><trkpt lat="27.89859594752571" lon="-15.534990420574875"><ele>619.0</ele><time>2026-05-04T17:47:00Z</time></trkpt><trkpt lat="27.898531948089992" lon="-15.534973513122425"><ele>619.0</ele><time>2026-05-04T17:47:06Z</time></trkpt><trkpt lat="27.898467139656372" lon="-15.53495043159037"><ele>619.0</ele><time>2026-05-04T17:47:12Z</time></trkpt><trkpt lat="27.898399154610935" lon="-15.534936989447704"><ele>619.0</ele><time>2026-05-04T17:47:17.999Z</time></trkpt><trkpt lat="27.89833592744267" lon="-15.534917829762364"><ele>618.1428571428571</ele><time>2026-05-04T17:47:23.999Z</time></trkpt><trkpt lat="27.89827328822405" lon="-15.534904724781493"><ele>617.2857142857143</ele><time>2026-05-04T17:47:28.999Z</time></trkpt><trkpt lat="27.89821280530856" lon="-15.534870886756712"><ele>616.4285714285714</ele><time>2026-05-04T17:47:34.999Z</time></trkpt><trkpt lat="27.898157550564672" lon="-15.534835622488853"><ele>615.5714285714286</ele><time>2026-05-04T17:47:39.999Z</time></trkpt><trkpt lat="27.898098683848417" lon="-15.534803328810913"><ele>614.7142857142857</ele><time>2026-05-04T17:47:45.999Z</time></trkpt><trkpt lat="27.898034508519938" lon="-15.534759691145672"><ele>613.8571428571429</ele><time>2026-05-04T17:47:52.999Z</time></trkpt><trkpt lat="27.897970709987074" lon="-15.534719755544902"><ele>613.0</ele><time>2026-05-04T17:47:58.999Z</time></trkpt><trkpt lat="27.89791286541277" lon="-15.534683797148638"><ele>613.0</ele><time>2026-05-04T17:48:04.999Z</time></trkpt><trkpt lat="27.897845460996276" lon="-15.534655515777958"><ele>613.0</ele><time>2026-05-04T17:48:10.999Z</time></trkpt><trkpt lat="27.89777434806741" lon="-15.53462517739579"><ele>613.0</ele><time>2026-05-04T17:48:16.999Z</time></trkpt><trkpt lat="27.89771521495936" lon="-15.534588428101022"><ele>613.0</ele><time>2026-05-04T17:49:55.999Z</time></trkpt><trkpt lat="27.897663894911496" lon="-15.534544862181495"><ele>613.0</ele><time>2026-05-04T17:50:00.999Z</time></trkpt><trkpt lat="27.897603461966305" lon="-15.534498891678057"><ele>613.0</ele><time>2026-05-04T17:50:06.999Z</time></trkpt><trkpt lat="27.897555018346356" lon="-15.534439812612385"><ele>613.0</ele><time>2026-05-04T17:50:12.999Z</time></trkpt><trkpt lat="27.89751345760645" lon="-15.534384813022362"><ele>612.5714285714286</ele><time>2026-05-04T17:50:17.999Z</time></trkpt><trkpt lat="27.89746628226133" lon="-15.534324858814367"><ele>612.1428571428571</ele><time>2026-05-04T17:50:23.999Z</time></trkpt><trkpt lat="27.897425589818184" lon="-15.5342679139666"><ele>611.7142857142858</ele><time>2026-05-04T17:50:28.998Z</time></trkpt><trkpt lat="27.897379887302005" lon="-15.53420413779692"><ele>611.2857142857142</ele><time>2026-05-04T17:50:35Z</time></trkpt><trkpt lat="27.897335150725812" lon="-15.534145520549233"><ele>610.8571428571428</ele><time>2026-05-04T17:50:41Z</time></trkpt><trkpt lat="27.897287508133385" lon="-15.534089606698316"><ele>610.4285714285714</ele><time>2026-05-04T17:50:47Z</time></trkpt><trkpt lat="27.897241170780315" lon="-15.534027528452071"><ele>610.0</ele><time>2026-05-04T17:50:53Z</time></trkpt><trkpt lat="27.897190504060394" lon="-15.533967610401165"><ele>610.0</ele><time>2026-05-04T17:50:59Z</time></trkpt><trkpt lat="27.89713298247704" lon="-15.53391388875851"><ele>610.0</ele><time>2026-05-04T17:51:05Z</time></trkpt><trkpt lat="27.897094345819543" lon="-15.53384826689359"><ele>610.0</ele><time>2026-05-04T17:51:11Z</time></trkpt><trkpt lat="27.897034793924817" lon="-15.53381329765363"><ele>610.0</ele><time>2026-05-04T17:51:16.999Z</time></trkpt><trkpt lat="27.896972181745646" lon="-15.533784460462796"><ele>610.0</ele><time>2026-05-04T17:51:22.999Z</time></trkpt><trkpt lat="27.896902906426423" lon="-15.53375398764894"><ele>610.0</ele><time>2026-05-04T17:51:28.999Z</time></trkpt><trkpt lat="27.896839972444194" lon="-15.53373087053996"><ele>610.0</ele><time>2026-05-04T17:51:34.999Z</time></trkpt><trkpt lat="27.89678280132264" lon="-15.53369578325358"><ele>609.8571428571429</ele><time>2026-05-04T17:51:46.999Z</time></trkpt><trkpt lat="27.89674025073334" lon="-15.533639276917237"><ele>609.7142857142857</ele><time>2026-05-04T17:51:53.999Z</time></trkpt><trkpt lat="27.896684559226735" lon="-15.533604105289498"><ele>609.5714285714286</ele><time>2026-05-04T17:51:59.999Z</time></trkpt><trkpt lat="27.896622974145085" lon="-15.533578119437768"><ele>609.4285714285714</ele><time>2026-05-04T17:52:05.999Z</time></trkpt><trkpt lat="27.89656786039045" lon="-15.53354265247365"><ele>609.2857142857142</ele><time>2026-05-04T17:52:10.999Z</time></trkpt><trkpt lat="27.896501097356502" lon="-15.533502989212275"><ele>609.1428571428571</ele><time>2026-05-04T17:52:16.999Z</time></trkpt><trkpt lat="27.896440087363384" lon="-15.533455728860089"><ele>609.0</ele><time>2026-05-04T17:52:22.999Z</time></trkpt><trkpt lat="27.896379301659493" lon="-15.533415431048956"><ele>609.0</ele><time>2026-05-04T17:52:28.998Z</time></trkpt><trkpt lat="27.896316957590322" lon="-15.533365514210882"><ele>609.0</ele><time>2026-05-04T17:52:34.998Z</time></trkpt><trkpt lat="27.896254079315355" lon="-15.533329061131386"><ele>609.0</ele><time>2026-05-04T17:52:41Z</time></trkpt><trkpt lat="27.896194881501426" lon="-15.53328330326395"><ele>609.0</ele><time>2026-05-04T17:52:47Z</time></trkpt><trkpt lat="27.896131248336037" lon="-15.533244696213128"><ele>609.0</ele><time>2026-05-04T17:52:53Z</time></trkpt><trkpt lat="27.896077950180786" lon="-15.533205624066785"><ele>609.0</ele><time>2026-05-04T17:52:59Z</time></trkpt><trkpt lat="27.89601196572019" lon="-15.533166157593596"><ele>609.0</ele><time>2026-05-04T17:53:05Z</time></trkpt><trkpt lat="27.89595173509678" lon="-15.533127304388296"><ele>609.0</ele><time>2026-05-04T17:53:11Z</time></trkpt><trkpt lat="27.89588512995589" lon="-15.533089809640972"><ele>609.0</ele><time>2026-05-04T17:53:17Z</time></trkpt><trkpt lat="27.895821340797866" lon="-15.533047886341754"><ele>609.0</ele><time>2026-05-04T17:53:23Z</time></trkpt><trkpt lat="27.89575850493055" lon="-15.533005081981383"><ele>609.0</ele><time>2026-05-04T17:53:29Z</time></trkpt><trkpt lat="27.89569361109904" lon="-15.532966663270697"><ele>609.0</ele><time>2026-05-04T17:53:34.999Z</time></trkpt><trkpt lat="27.895638858357163" lon="-15.532927567542274"><ele>609.0</ele><time>2026-05-04T17:53:40.999Z</time></trkpt><trkpt lat="27.895578998048965" lon="-15.532894656303178"><ele>609.0</ele><time>2026-05-04T17:53:46.999Z</time></trkpt><trkpt lat="27.89552641769138" lon="-15.53285522415055"><ele>609.0</ele><time>2026-05-04T17:53:53.999Z</time></trkpt><trkpt lat="27.895462714458716" lon="-15.532819634961678"><ele>609.0</ele><time>2026-05-04T17:54:01.999Z</time></trkpt><trkpt lat="27.895404433694416" lon="-15.53279269972625"><ele>609.0</ele><time>2026-05-04T17:54:07.999Z</time></trkpt><trkpt lat="27.895351749586528" lon="-15.532753583715385"><ele>609.0</ele><time>2026-05-04T17:54:15.999Z</time></trkpt><trkpt lat="27.895290696549466" lon="-15.532711963956475"><ele>609.0</ele><time>2026-05-04T17:54:22.999Z</time></trkpt><trkpt lat="27.89523249989272" lon="-15.532673334987699"><ele>609.0</ele><time>2026-05-04T17:54:29.999Z</time></trkpt><trkpt lat="27.895166754727033" lon="-15.532632068164094"><ele>609.0</ele><time>2026-05-04T17:54:36.999Z</time></trkpt><trkpt lat="27.895122650514217" lon="-15.532576891835168"><ele>606.8571428571429</ele><time>2026-05-04T17:54:43Z</time></trkpt><trkpt lat="27.895076159092298" lon="-15.53251950958156"><ele>604.7142857142858</ele><time>2026-05-04T17:54:51Z</time></trkpt><trkpt lat="27.8950237332364" lon="-15.532466764439935"><ele>602.5714285714286</ele><time>2026-05-04T17:55:00Z</time></trkpt><trkpt lat="27.89496526018426" lon="-15.532427849209578"><ele>600.4285714285714</ele><time>2026-05-04T17:55:09Z</time></trkpt><trkpt lat="27.89491318016804" lon="-15.532384208742336"><ele>598.2857142857143</ele><time>2026-05-04T17:55:19Z</time></trkpt><trkpt lat="27.894865850439633" lon="-15.532327089668087"><ele>596.1428571428571</ele><time>2026-05-04T17:55:32Z</time></trkpt><trkpt lat="27.894812217607598" lon="-15.53228557653685"><ele>594.0</ele><time>2026-05-04T17:55:38.999Z</time></trkpt><trkpt lat="27.894753874364923" lon="-15.532247518547692"><ele>594.0</ele><time>2026-05-04T17:55:45.999Z</time></trkpt><trkpt lat="27.894694285489166" lon="-15.532216162596313"><ele>594.0</ele><time>2026-05-04T17:55:52.999Z</time></trkpt><trkpt lat="27.894626324492464" lon="-15.532179842841806"><ele>594.0</ele><time>2026-05-04T17:55:58.999Z</time></trkpt><trkpt lat="27.89456155564669" lon="-15.532154700233724"><ele>594.0</ele><time>2026-05-04T17:56:06.999Z</time></trkpt><trkpt lat="27.894502005316266" lon="-15.53211277633498"><ele>594.0</ele><time>2026-05-04T17:56:12.999Z</time></trkpt><trkpt lat="27.894443810221176" lon="-15.532067379387904"><ele>594.0</ele><time>2026-05-04T17:56:19.999Z</time></trkpt><trkpt lat="27.894390599178685" lon="-15.532021495413641"><ele>594.0</ele><time>2026-05-04T17:56:26.999Z</time></trkpt><trkpt lat="27.894338896285497" lon="-15.531979195120009"><ele>593.1428571428571</ele><time>2026-05-04T17:56:33.999Z</time></trkpt><trkpt lat="27.894275645855934" lon="-15.531937221074969"><ele>592.2857142857143</ele><time>2026-05-04T17:56:40.999Z</time></trkpt><trkpt lat="27.89422054296949" lon="-15.531898998866422"><ele>591.4285714285714</ele><time>2026-05-04T17:56:52Z</time></trkpt><trkpt lat="27.894171118140278" lon="-15.53184682424157"><ele>590.5714285714286</ele><time>2026-05-04T17:56:59Z</time></trkpt><trkpt lat="27.8941129433672" lon="-15.53181599289353"><ele>589.7142857142858</ele><time>2026-05-04T17:57:06Z</time></trkpt><trkpt lat="27.894052340171687" lon="-15.531780298450135"><ele>588.8571428571429</ele><time>2026-05-04T17:57:13Z</time></trkpt><trkpt lat="27.89399865437473" lon="-15.531737156683807"><ele>588.0</ele><time>2026-05-04T17:57:20Z</time></trkpt><trkpt lat="27.89394451847498" lon="-15.531696605829605"><ele>588.0</ele><time>2026-05-04T17:57:27Z</time></trkpt><trkpt lat="27.8938873270927" lon="-15.531645568019465"><ele>588.0</ele><time>2026-05-04T17:57:34Z</time></trkpt><trkpt lat="27.893831813425574" lon="-15.531601162407384"><ele>588.0</ele><time>2026-05-04T17:57:41Z</time></trkpt><trkpt lat="27.893785122051508" lon="-15.531550739917133"><ele>588.0</ele><time>2026-05-04T17:57:46.999Z</time></trkpt><trkpt lat="27.893736994377097" lon="-15.531492398684081"><ele>588.0</ele><time>2026-05-04T17:57:52.999Z</time></trkpt><trkpt lat="27.893696814444457" lon="-15.531432440271915"><ele>588.0</ele><time>2026-05-04T17:57:58.999Z</time></trkpt><trkpt lat="27.893641850413715" lon="-15.5313861332419"><ele>588.0</ele><time>2026-05-04T17:58:04.999Z</time></trkpt><trkpt lat="27.89358115658525" lon="-15.53135640589112"><ele>588.0</ele><time>2026-05-04T17:58:10.999Z</time></trkpt><trkpt lat="27.893521461434876" lon="-15.531329408760627"><ele>588.0</ele><time>2026-05-04T17:58:15.999Z</time></trkpt><trkpt lat="27.89345842037342" lon="-15.531294006014162"><ele>588.0</ele><time>2026-05-04T17:58:22.999Z</time></trkpt><trkpt lat="27.893393647407848" lon="-15.531257995814713"><ele>588.0</ele><time>2026-05-04T17:58:29.999Z</time></trkpt><trkpt lat="27.893329005079813" lon="-15.53122775452845"><ele>588.0</ele><time>2026-05-04T17:58:35.999Z</time></trkpt><trkpt lat="27.893265243627564" lon="-15.531198396439347"><ele>588.0</ele><time>2026-05-04T17:58:42.999Z</time></trkpt><trkpt lat="27.893202642412334" lon="-15.531156191393299"><ele>588.0</ele><time>2026-05-04T17:58:49.999Z</time></trkpt><trkpt lat="27.893144692022968" lon="-15.53111830657796"><ele>587.1428571428571</ele><time>2026-05-04T17:58:57Z</time></trkpt><trkpt lat="27.89309157256517" lon="-15.531061332412149"><ele>586.2857142857142</ele><time>2026-05-04T17:59:04Z</time></trkpt><trkpt lat="27.89303856269126" lon="-15.531000601543118"><ele>585.4285714285714</ele><time>2026-05-04T17:59:11Z</time></trkpt><trkpt lat="27.892983122608594" lon="-15.530951843755563"><ele>584.5714285714286</ele><time>2026-05-04T17:59:17Z</time></trkpt><trkpt lat="27.89291901817998" lon="-15.530919034800812"><ele>583.7142857142857</ele><time>2026-05-04T17:59:23Z</time></trkpt><trkpt lat="27.8928623669433" lon="-15.530883452688215"><ele>582.8571428571429</ele><time>2026-05-04T17:59:29Z</time></trkpt><trkpt lat="27.89280631998046" lon="-15.530839928330355"><ele>582.0</ele><time>2026-05-04T18:00:01.999Z</time></trkpt><trkpt lat="27.892754124165375" lon="-15.530786498389263"><ele>582.0</ele><time>2026-05-04T18:00:07.999Z</time></trkpt><trkpt lat="27.892714578696218" lon="-15.530723540777402"><ele>582.0</ele><time>2026-05-04T18:00:14.999Z</time></trkpt><trkpt lat="27.89268269502293" lon="-15.53065929194268"><ele>582.0</ele><time>2026-05-04T18:00:20.999Z</time></trkpt><trkpt lat="27.89264991672353" lon="-15.530596070336259"><ele>582.0</ele><time>2026-05-04T18:00:26.999Z</time></trkpt><trkpt lat="27.892617058450558" lon="-15.530531534800163"><ele>582.0</ele><time>2026-05-04T18:00:32.999Z</time></trkpt><trkpt lat="27.892568685776695" lon="-15.530468520031095"><ele>582.0</ele><time>2026-05-04T18:00:39.999Z</time></trkpt><trkpt lat="27.892523330796173" lon="-15.530414222589519"><ele>582.0</ele><time>2026-05-04T18:00:46.999Z</time></trkpt><trkpt lat="27.892479370157698" lon="-15.530357650242278"><ele>582.7142857142857</ele><time>2026-05-04T18:00:53.999Z</time></trkpt><trkpt lat="27.8924430583045" lon="-15.530297572927616"><ele>583.4285714285713</ele><time>2026-05-04T18:01:00Z</time></trkpt><trkpt lat="27.892409141301922" lon="-15.53023634144969"><ele>584.1428571428571</ele><time>2026-05-04T18:01:07Z</time></trkpt><trkpt lat="27.892365763414798" lon="-15.53017858561239"><ele>584.8571428571429</ele><time>2026-05-04T18:01:14Z</time></trkpt><trkpt lat="27.89233199014163" lon="-15.530111598348354"><ele>585.5714285714287</ele><time>2026-05-04T18:01:21Z</time></trkpt><trkpt lat="27.89229185104178" lon="-15.530055833995114"><ele>586.2857142857143</ele><time>2026-05-04T18:01:27Z</time></trkpt><trkpt lat="27.892260883539414" lon="-15.529993237341733"><ele>587.0</ele><time>2026-05-04T18:01:33Z</time></trkpt><trkpt lat="27.892223294809416" lon="-15.52992498131883"><ele>587.0</ele><time>2026-05-04T18:01:40Z</time></trkpt><trkpt lat="27.892185273894075" lon="-15.529867170268835"><ele>587.0</ele><time>2026-05-04T18:01:46Z</time></trkpt><trkpt lat="27.89214329737205" lon="-15.529809794709285"><ele>587.0</ele><time>2026-05-04T18:01:52.999Z</time></trkpt><trkpt lat="27.892109399650458" lon="-15.529743874612073"><ele>587.0</ele><time>2026-05-04T18:02:00.999Z</time></trkpt><trkpt lat="27.892088037688904" lon="-15.52967352441904"><ele>587.0</ele><time>2026-05-04T18:02:07.999Z</time></trkpt><trkpt lat="27.89204361524732" lon="-15.52961816992764"><ele>587.0</ele><time>2026-05-04T18:02:13.999Z</time></trkpt><trkpt lat="27.891990317599152" lon="-15.529579912302058"><ele>587.0</ele><time>2026-05-04T18:02:19.999Z</time></trkpt><trkpt lat="27.891954948289676" lon="-15.529519209629349"><ele>587.4285714285714</ele><time>2026-05-04T18:02:27.999Z</time></trkpt><trkpt lat="27.891912581257344" lon="-15.529462468928331"><ele>587.8571428571429</ele><time>2026-05-04T18:02:40.999Z</time></trkpt><trkpt lat="27.89187523358827" lon="-15.529394057095944"><ele>588.2857142857143</ele><time>2026-05-04T18:02:49.999Z</time></trkpt><trkpt lat="27.891833406053582" lon="-15.529336168157522"><ele>588.7142857142858</ele><time>2026-05-04T18:02:57.999Z</time></trkpt><trkpt lat="27.891802621571085" lon="-15.529273279473019"><ele>589.1428571428571</ele><time>2026-05-04T18:03:04.998Z</time></trkpt><trkpt lat="27.89177717829546" lon="-15.529206444776683"><ele>589.5714285714287</ele><time>2026-05-04T18:03:13Z</time></trkpt><trkpt lat="27.891743827396045" lon="-15.529145906728687"><ele>590.0</ele><time>2026-05-04T18:03:21Z</time></trkpt><trkpt lat="27.891705511316356" lon="-15.52908417524688"><ele>590.0000000000001</ele><time>2026-05-04T18:03:28Z</time></trkpt><trkpt lat="27.891659328781174" lon="-15.529027791769183"><ele>590.0</ele><time>2026-05-04T18:03:36Z</time></trkpt><trkpt lat="27.891611179054657" lon="-15.528978234985445"><ele>590.0</ele><time>2026-05-04T18:03:42Z</time></trkpt><trkpt lat="27.891562470155495" lon="-15.528927817400541"><ele>590.0</ele><time>2026-05-04T18:03:48Z</time></trkpt><trkpt lat="27.89150475205367" lon="-15.528882759030967"><ele>590.0</ele><time>2026-05-04T18:03:55Z</time></trkpt><trkpt lat="27.891454092242785" lon="-15.528834716264015"><ele>590.0000000000001</ele><time>2026-05-04T18:04:42.999Z</time></trkpt><trkpt lat="27.89139148870512" lon="-15.528822157661358"><ele>590.0</ele><time>2026-05-04T18:04:48.999Z</time></trkpt><trkpt lat="27.891323305657373" lon="-15.528803494860925"><ele>590.0000000000001</ele><time>2026-05-04T18:04:54.999Z</time></trkpt><trkpt lat="27.891262042418877" lon="-15.52877950829741"><ele>590.0</ele><time>2026-05-04T18:05:00.999Z</time></trkpt><trkpt lat="27.891204818209193" lon="-15.528735425417883"><ele>590.0</ele><time>2026-05-04T18:05:06.998Z</time></trkpt><trkpt lat="27.891144196145635" lon="-15.52869350761418"><ele>590.0</ele><time>2026-05-04T18:05:14Z</time></trkpt><trkpt lat="27.891090037865805" lon="-15.528652013407312"><ele>590.0</ele><time>2026-05-04T18:05:23Z</time></trkpt><trkpt lat="27.891038153812364" lon="-15.528605624879503"><ele>590.0000000000001</ele><time>2026-05-04T18:05:30Z</time></trkpt><trkpt lat="27.890986296835244" lon="-15.528560695561385"><ele>590.0</ele><time>2026-05-04T18:05:48Z</time></trkpt><trkpt lat="27.890930524397138" lon="-15.528516937847975"><ele>591.1428571428572</ele><time>2026-05-04T18:05:55Z</time></trkpt><trkpt lat="27.890878896233133" lon="-15.528474792428025"><ele>592.2857142857143</ele><time>2026-05-04T18:06:01.999Z</time></trkpt><trkpt lat="27.89083799649506" lon="-15.528413263152279"><ele>593.4285714285714</ele><time>2026-05-04T18:06:09.999Z</time></trkpt><trkpt lat="27.890799656063972" lon="-15.528349975092313"><ele>594.5714285714287</ele><time>2026-05-04T18:06:17.999Z</time></trkpt><trkpt lat="27.890759979523587" lon="-15.528284639830362"><ele>595.7142857142858</ele><time>2026-05-04T18:06:25.999Z</time></trkpt><trkpt lat="27.890723614403285" lon="-15.528216093048197"><ele>596.8571428571429</ele><time>2026-05-04T18:06:32.999Z</time></trkpt><trkpt lat="27.89068518510221" lon="-15.528154687752775"><ele>598.0</ele><time>2026-05-04T18:06:39.999Z</time></trkpt><trkpt lat="27.890634631130382" lon="-15.52809934127493"><ele>598.0</ele><time>2026-05-04T18:06:47.999Z</time></trkpt><trkpt lat="27.89058966310869" lon="-15.52804526176102"><ele>598.0</ele><time>2026-05-04T18:06:54.999Z</time></trkpt><trkpt lat="27.89054414474362" lon="-15.527995469033023"><ele>598.0</ele><time>2026-05-04T18:07:01.999Z</time></trkpt><trkpt lat="27.8905008157745" lon="-15.52793738610041"><ele>598.0</ele><time>2026-05-04T18:07:08.999Z</time></trkpt><trkpt lat="27.89046394224603" lon="-15.527875501506333"><ele>598.0</ele><time>2026-05-04T18:07:15.998Z</time></trkpt><trkpt lat="27.890420353998135" lon="-15.527809617095912"><ele>598.0</ele><time>2026-05-04T18:07:24Z</time></trkpt><trkpt lat="27.89038259828507" lon="-15.527741474496844"><ele>598.0</ele><time>2026-05-04T18:07:32Z</time></trkpt><trkpt lat="27.890429732461534" lon="-15.527798855166344"><ele>598.0</ele><time>2026-05-04T18:12:29.999Z</time></trkpt><trkpt lat="27.89047757071585" lon="-15.527849420186257"><ele>598.0</ele><time>2026-05-04T18:13:23.999Z</time></trkpt><trkpt lat="27.890522885266776" lon="-15.52790239358723"><ele>598.0</ele><time>2026-05-04T18:13:33.998Z</time></trkpt><trkpt lat="27.890565760922875" lon="-15.52795619420111"><ele>598.0</ele><time>2026-05-04T18:13:41Z</time></trkpt><trkpt lat="27.890600312911815" lon="-15.528019934357845"><ele>598.0</ele><time>2026-05-04T18:13:50Z</time></trkpt><trkpt lat="27.890636709780104" lon="-15.52808440356986"><ele>598.0</ele><time>2026-05-04T18:13:57Z</time></trkpt><trkpt lat="27.890690661033798" lon="-15.528139483204402"><ele>598.0</ele><time>2026-05-04T18:14:06Z</time></trkpt><trkpt lat="27.890732212797133" lon="-15.528208252984056"><ele>598.0</ele><time>2026-05-04T18:14:13Z</time></trkpt><trkpt lat="27.890766787433957" lon="-15.528274827626422"><ele>598.0</ele><time>2026-05-04T18:14:20Z</time></trkpt><trkpt lat="27.890800532593428" lon="-15.528342754951598"><ele>598.0</ele><time>2026-05-04T18:14:26.999Z</time></trkpt><trkpt lat="27.890849149507808" lon="-15.528401229083931"><ele>598.0</ele><time>2026-05-04T18:14:33.999Z</time></trkpt><trkpt lat="27.890888501386492" lon="-15.52846916999913"><ele>598.0</ele><time>2026-05-04T18:14:39.999Z</time></trkpt><trkpt lat="27.890943252833985" lon="-15.52852518216249"><ele>598.0</ele><time>2026-05-04T18:14:46.999Z</time></trkpt><trkpt lat="27.890997469316606" lon="-15.528577985281192"><ele>598.0</ele><time>2026-05-04T18:14:54.999Z</time></trkpt><trkpt lat="27.891049314194074" lon="-15.52862135969712"><ele>596.8571428571429</ele><time>2026-05-04T18:15:02.999Z</time></trkpt><trkpt lat="27.89110610256234" lon="-15.528657957409786"><ele>595.7142857142858</ele><time>2026-05-04T18:15:10.999Z</time></trkpt><trkpt lat="27.89115729921443" lon="-15.528702072691999"><ele>594.5714285714287</ele><time>2026-05-04T18:15:17.999Z</time></trkpt><trkpt lat="27.89121645798652" lon="-15.528737883055626"><ele>593.4285714285714</ele><time>2026-05-04T18:15:24.999Z</time></trkpt><trkpt lat="27.89127355139319" lon="-15.528780809368659"><ele>592.2857142857143</ele><time>2026-05-04T18:15:30.999Z</time></trkpt><trkpt lat="27.891337598254825" lon="-15.528805876656229"><ele>591.1428571428572</ele><time>2026-05-04T18:15:37.999Z</time></trkpt><trkpt lat="27.89140275513681" lon="-15.52883185060688"><ele>590.0</ele><time>2026-05-04T18:15:45Z</time></trkpt><trkpt lat="27.89146550867625" lon="-15.528860088927189"><ele>590.0000000000001</ele><time>2026-05-04T18:15:52Z</time></trkpt><trkpt lat="27.89151318256147" lon="-15.528911577015418"><ele>590.0</ele><time>2026-05-04T18:15:57Z</time></trkpt><trkpt lat="27.89157010491754" lon="-15.528964778674384"><ele>590.0</ele><time>2026-05-04T18:16:04Z</time></trkpt><trkpt lat="27.891625555380234" lon="-15.529011919800304"><ele>590.0</ele><time>2026-05-04T18:16:11Z</time></trkpt><trkpt lat="27.891672937688096" lon="-15.52906058517913"><ele>590.0</ele><time>2026-05-04T18:16:17Z</time></trkpt><trkpt lat="27.891724424194727" lon="-15.529120454623637"><ele>590.0000000000001</ele><time>2026-05-04T18:16:24Z</time></trkpt><trkpt lat="27.89176217737794" lon="-15.529185433624836"><ele>590.0</ele><time>2026-05-04T18:16:31.999Z</time></trkpt><trkpt lat="27.891787130954576" lon="-15.529254324590935"><ele>589.5714285714287</ele><time>2026-05-04T18:16:40.999Z</time></trkpt><trkpt lat="27.89181882232905" lon="-15.52931767634593"><ele>589.1428571428571</ele><time>2026-05-04T18:16:46.999Z</time></trkpt><trkpt lat="27.89186111731034" lon="-15.529381553133005"><ele>588.7142857142858</ele><time>2026-05-04T18:16:55.999Z</time></trkpt><trkpt lat="27.89190583629043" lon="-15.529438170815425"><ele>588.2857142857143</ele><time>2026-05-04T18:17:02.999Z</time></trkpt><trkpt lat="27.891941252519604" lon="-15.529504060536514"><ele>587.8571428571429</ele><time>2026-05-04T18:17:08.999Z</time></trkpt><trkpt lat="27.89197733299482" lon="-15.529582151424652"><ele>587.4285714285714</ele><time>2026-05-04T18:17:26.999Z</time></trkpt><trkpt lat="27.892019022867522" lon="-15.529650032601602"><ele>587.0</ele><time>2026-05-04T18:17:33.999Z</time></trkpt><trkpt lat="27.89207733912055" lon="-15.529702271632928"><ele>587.0</ele><time>2026-05-04T18:17:39.999Z</time></trkpt><trkpt lat="27.89213553531329" lon="-15.529748602129311"><ele>587.0</ele><time>2026-05-04T18:17:45.998Z</time></trkpt><trkpt lat="27.892191466000178" lon="-15.529797724187645"><ele>587.0</ele><time>2026-05-04T18:17:52Z</time></trkpt><trkpt lat="27.892251058005865" lon="-15.529824481838288"><ele>587.0</ele><time>2026-05-04T18:18:10Z</time></trkpt><trkpt lat="27.892302472417295" lon="-15.529871374521834"><ele>587.0</ele><time>2026-05-04T18:18:16Z</time></trkpt><trkpt lat="27.89235664359863" lon="-15.52991176156796"><ele>587.0</ele><time>2026-05-04T18:18:22Z</time></trkpt><trkpt lat="27.892411892778952" lon="-15.529951421967308"><ele>587.0</ele><time>2026-05-04T18:18:27Z</time></trkpt><trkpt lat="27.892466081788772" lon="-15.529992526359253"><ele>587.0</ele><time>2026-05-04T18:18:33Z</time></trkpt><trkpt lat="27.89254314520042" lon="-15.530034150913801"><ele>587.0</ele><time>2026-05-04T18:18:38.999Z</time></trkpt><trkpt lat="27.892601496767323" lon="-15.530066333816928"><ele>587.0</ele><time>2026-05-04T18:18:44.999Z</time></trkpt><trkpt lat="27.892659406619742" lon="-15.530100634212086"><ele>587.0</ele><time>2026-05-04T18:18:50.999Z</time></trkpt><trkpt lat="27.89272611175415" lon="-15.530136600035355"><ele>587.0</ele><time>2026-05-04T18:18:56.999Z</time></trkpt><trkpt lat="27.892795236240826" lon="-15.530173433917895"><ele>587.0</ele><time>2026-05-04T18:19:01.999Z</time></trkpt><trkpt lat="27.8928585553105" lon="-15.530206261907484"><ele>587.0</ele><time>2026-05-04T18:19:07.999Z</time></trkpt><trkpt lat="27.892924137363085" lon="-15.53023668770715"><ele>586.2857142857143</ele><time>2026-05-04T18:19:13.999Z</time></trkpt><trkpt lat="27.892985262598444" lon="-15.530268614429717"><ele>585.5714285714287</ele><time>2026-05-04T18:19:19.999Z</time></trkpt><trkpt lat="27.893044744943186" lon="-15.530301336106938"><ele>584.8571428571429</ele><time>2026-05-04T18:19:24.999Z</time></trkpt><trkpt lat="27.89311021938416" lon="-15.530334490900586"><ele>584.1428571428571</ele><time>2026-05-04T18:19:30.999Z</time></trkpt><trkpt lat="27.893177087101236" lon="-15.530370640872968"><ele>583.4285714285713</ele><time>2026-05-04T18:19:36.999Z</time></trkpt><trkpt lat="27.893232453871732" lon="-15.530410933702544"><ele>582.7142857142857</ele><time>2026-05-04T18:19:42.999Z</time></trkpt><trkpt lat="27.89328550116604" lon="-15.530449352210292"><ele>582.0</ele><time>2026-05-04T18:19:47.999Z</time></trkpt><trkpt lat="27.893334211381532" lon="-15.53050702919695"><ele>582.0</ele><time>2026-05-04T18:19:55Z</time></trkpt><trkpt lat="27.893392911754404" lon="-15.530546529520155"><ele>582.0</ele><time>2026-05-04T18:20:01Z</time></trkpt><trkpt lat="27.893446879915874" lon="-15.530590479580194"><ele>582.0</ele><time>2026-05-04T18:20:06Z</time></trkpt><trkpt lat="27.893501261628455" lon="-15.530634659145536"><ele>582.0</ele><time>2026-05-04T18:20:12Z</time></trkpt><trkpt lat="27.89355634264982" lon="-15.53067087828865"><ele>582.0</ele><time>2026-05-04T18:20:17Z</time></trkpt><trkpt lat="27.89361334173654" lon="-15.530716038098396"><ele>582.0</ele><time>2026-05-04T18:20:23Z</time></trkpt><trkpt lat="27.89366837838239" lon="-15.530756501340928"><ele>582.0</ele><time>2026-05-04T18:20:29Z</time></trkpt><trkpt lat="27.893718370697318" lon="-15.530800514759115"><ele>584.7142857142857</ele><time>2026-05-04T18:20:34Z</time></trkpt><trkpt lat="27.89378042661367" lon="-15.530835194859511"><ele>587.4285714285713</ele><time>2026-05-04T18:20:40Z</time></trkpt><trkpt lat="27.893838507906853" lon="-15.5308706368746"><ele>590.1428571428571</ele><time>2026-05-04T18:20:44.999Z</time></trkpt><trkpt lat="27.893897398010782" lon="-15.530909025793298"><ele>592.8571428571429</ele><time>2026-05-04T18:20:50.999Z</time></trkpt><trkpt lat="27.89395901809174" lon="-15.530939531830006"><ele>595.5714285714287</ele><time>2026-05-04T18:20:56.999Z</time></trkpt><trkpt lat="27.89402269914692" lon="-15.530973226986955"><ele>598.2857142857142</ele><time>2026-05-04T18:21:02.999Z</time></trkpt><trkpt lat="27.894078509782485" lon="-15.531010612100541"><ele>601.0</ele><time>2026-05-04T18:21:08.999Z</time></trkpt><trkpt lat="27.894134368541877" lon="-15.53105329355739"><ele>601.0</ele><time>2026-05-04T18:21:14.999Z</time></trkpt><trkpt lat="27.89419108470795" lon="-15.531095242814407"><ele>601.0</ele><time>2026-05-04T18:21:20.999Z</time></trkpt><trkpt lat="27.89424615772492" lon="-15.531138904001283"><ele>601.0</ele><time>2026-05-04T18:21:27.999Z</time></trkpt><trkpt lat="27.894303376438387" lon="-15.531178607446922"><ele>601.0</ele><time>2026-05-04T18:21:33.999Z</time></trkpt><trkpt lat="27.894360501278157" lon="-15.531227244448985"><ele>601.0</ele><time>2026-05-04T18:21:39.999Z</time></trkpt><trkpt lat="27.894418416967845" lon="-15.531261347994942"><ele>601.0</ele><time>2026-05-04T18:21:45.999Z</time></trkpt><trkpt lat="27.89447390706041" lon="-15.531302655589283"><ele>601.0</ele><time>2026-05-04T18:21:51.999Z</time></trkpt><trkpt lat="27.89453812301898" lon="-15.531339614401166"><ele>601.4285714285714</ele><time>2026-05-04T18:21:57.998Z</time></trkpt><trkpt lat="27.894589478728243" lon="-15.531390714082544"><ele>601.8571428571429</ele><time>2026-05-04T18:22:04Z</time></trkpt><trkpt lat="27.894650027971178" lon="-15.531435468141856"><ele>602.2857142857143</ele><time>2026-05-04T18:22:10Z</time></trkpt><trkpt lat="27.894708725300294" lon="-15.53148399618092"><ele>602.7142857142858</ele><time>2026-05-04T18:22:16Z</time></trkpt><trkpt lat="27.894763895991023" lon="-15.531522740877458"><ele>603.1428571428571</ele><time>2026-05-04T18:22:21Z</time></trkpt><trkpt lat="27.89482390001467" lon="-15.531560873464793"><ele>603.5714285714287</ele><time>2026-05-04T18:22:28Z</time></trkpt><trkpt lat="27.8948816882591" lon="-15.531602496808588"><ele>604.0</ele><time>2026-05-04T18:22:34Z</time></trkpt><trkpt lat="27.89494371916072" lon="-15.531647182283072"><ele>604.0000000000001</ele><time>2026-05-04T18:22:40Z</time></trkpt><trkpt lat="27.89500989296045" lon="-15.531688003455926"><ele>604.0</ele><time>2026-05-04T18:22:46.999Z</time></trkpt><trkpt lat="27.895063376963083" lon="-15.531727348978839"><ele>604.0</ele><time>2026-05-04T18:22:52.999Z</time></trkpt><trkpt lat="27.895121392907427" lon="-15.531768579448205"><ele>604.0</ele><time>2026-05-04T18:22:58.999Z</time></trkpt><trkpt lat="27.895175903558123" lon="-15.531811572609223"><ele>604.0</ele><time>2026-05-04T18:23:05.999Z</time></trkpt><trkpt lat="27.89521917206109" lon="-15.531868387774104"><ele>604.0000000000001</ele><time>2026-05-04T18:23:11.999Z</time></trkpt><trkpt lat="27.895271392393305" lon="-15.53192492552115"><ele>604.0</ele><time>2026-05-04T18:23:17.999Z</time></trkpt><trkpt lat="27.895328131951732" lon="-15.531979301892756"><ele>604.7142857142858</ele><time>2026-05-04T18:23:23.999Z</time></trkpt><trkpt lat="27.895383646062264" lon="-15.532031922347624"><ele>605.4285714285714</ele><time>2026-05-04T18:23:29.999Z</time></trkpt><trkpt lat="27.89543791047889" lon="-15.532080179074523"><ele>606.1428571428571</ele><time>2026-05-04T18:23:35.999Z</time></trkpt><trkpt lat="27.89549490450817" lon="-15.53212997451767"><ele>606.8571428571429</ele><time>2026-05-04T18:23:41.999Z</time></trkpt><trkpt lat="27.89555208357709" lon="-15.532180707455197"><ele>607.5714285714286</ele><time>2026-05-04T18:23:47.999Z</time></trkpt><trkpt lat="27.895605428994465" lon="-15.532224897776564"><ele>608.2857142857143</ele><time>2026-05-04T18:23:53.999Z</time></trkpt><trkpt lat="27.895652727946363" lon="-15.532272461621936"><ele>609.0</ele><time>2026-05-04T18:23:59.999Z</time></trkpt><trkpt lat="27.89570693714172" lon="-15.532312818750734"><ele>609.0</ele><time>2026-05-04T18:24:05Z</time></trkpt><trkpt lat="27.89576245140202" lon="-15.532351430179075"><ele>609.0</ele><time>2026-05-04T18:24:10Z</time></trkpt><trkpt lat="27.89581339475918" lon="-15.532399994162562"><ele>609.0</ele><time>2026-05-04T18:24:16Z</time></trkpt><trkpt lat="27.89587788479117" lon="-15.532442386756662"><ele>609.0</ele><time>2026-05-04T18:24:23Z</time></trkpt><trkpt lat="27.895945566304615" lon="-15.532491457599608"><ele>609.0</ele><time>2026-05-04T18:24:29Z</time></trkpt><trkpt lat="27.896004430688897" lon="-15.532523774347972"><ele>609.0</ele><time>2026-05-04T18:24:35Z</time></trkpt><trkpt lat="27.89606396329382" lon="-15.53256590020276"><ele>609.0</ele><time>2026-05-04T18:24:41Z</time></trkpt><trkpt lat="27.8961269448821" lon="-15.532603046077847"><ele>611.1428571428571</ele><time>2026-05-04T18:24:47Z</time></trkpt><trkpt lat="27.896191652638187" lon="-15.532638699155697"><ele>613.2857142857142</ele><time>2026-05-04T18:24:52.999Z</time></trkpt><trkpt lat="27.89624901234146" lon="-15.53267351218071"><ele>615.4285714285714</ele><time>2026-05-04T18:24:58.999Z</time></trkpt><trkpt lat="27.89631234709545" lon="-15.53270250661635"><ele>617.5714285714286</ele><time>2026-05-04T18:25:04.999Z</time></trkpt><trkpt lat="27.89637412837914" lon="-15.53274323059269"><ele>619.7142857142857</ele><time>2026-05-04T18:25:10.999Z</time></trkpt><trkpt lat="27.896440435466218" lon="-15.532773020133346"><ele>621.8571428571429</ele><time>2026-05-04T18:25:16.999Z</time></trkpt><trkpt lat="27.896499937178994" lon="-15.53279670710073"><ele>624.0</ele><time>2026-05-04T18:25:21.999Z</time></trkpt><trkpt lat="27.89656044915953" lon="-15.532827584601566"><ele>624.0</ele><time>2026-05-04T18:25:27.999Z</time></trkpt><trkpt lat="27.89661953074183" lon="-15.532860539146167"><ele>624.0</ele><time>2026-05-04T18:25:33.999Z</time></trkpt><trkpt lat="27.89668931850796" lon="-15.532889381600764"><ele>624.0</ele><time>2026-05-04T18:25:39.999Z</time></trkpt><trkpt lat="27.896757403190772" lon="-15.532912830679813"><ele>624.0</ele><time>2026-05-04T18:25:45.999Z</time></trkpt><trkpt lat="27.89682311763634" lon="-15.532947889674471"><ele>624.0</ele><time>2026-05-04T18:25:52.999Z</time></trkpt><trkpt lat="27.896883860307923" lon="-15.53298785253173"><ele>624.0</ele><time>2026-05-04T18:25:59.999Z</time></trkpt><trkpt lat="27.89695119690162" lon="-15.533019741596963"><ele>624.0</ele><time>2026-05-04T18:26:06.998Z</time></trkpt><trkpt lat="27.897018639845374" lon="-15.53304350596993"><ele>623.0</ele><time>2026-05-04T18:26:13Z</time></trkpt><trkpt lat="27.897088915120815" lon="-15.533078604093994"><ele>622.0</ele><time>2026-05-04T18:26:19Z</time></trkpt><trkpt lat="27.89715698887412" lon="-15.53310133552688"><ele>621.0</ele><time>2026-05-04T18:26:25Z</time></trkpt><trkpt lat="27.897223015064824" lon="-15.533106828740358"><ele>620.0</ele><time>2026-05-04T18:26:31Z</time></trkpt><trkpt lat="27.89728486978171" lon="-15.533134419340996"><ele>619.0</ele><time>2026-05-04T18:26:38Z</time></trkpt><trkpt lat="27.897350970723494" lon="-15.533146588679331"><ele>618.0</ele><time>2026-05-04T18:26:45Z</time></trkpt><trkpt lat="27.897415001045477" lon="-15.533147499379751"><ele>617.0</ele><time>2026-05-04T18:26:50Z</time></trkpt><trkpt lat="27.897480456242086" lon="-15.533155171914627"><ele>617.0</ele><time>2026-05-04T18:26:56Z</time></trkpt><trkpt lat="27.8975524321173" lon="-15.533173711511367"><ele>617.0</ele><time>2026-05-04T18:27:02.999Z</time></trkpt><trkpt lat="27.897617009094485" lon="-15.53320856195256"><ele>617.0</ele><time>2026-05-04T18:27:08.999Z</time></trkpt><trkpt lat="27.897677624755794" lon="-15.53323541020662"><ele>617.0</ele><time>2026-05-04T18:27:14.999Z</time></trkpt><trkpt lat="27.897752988376066" lon="-15.53325410389363"><ele>617.0</ele><time>2026-05-04T18:27:20.999Z</time></trkpt><trkpt lat="27.89781535310341" lon="-15.533281915640725"><ele>617.0</ele><time>2026-05-04T18:27:26.999Z</time></trkpt><trkpt lat="27.897880496156134" lon="-15.533312840022049"><ele>617.0</ele><time>2026-05-04T18:27:33.999Z</time></trkpt><trkpt lat="27.89795921355344" lon="-15.53333925255302"><ele>619.2857142857143</ele><time>2026-05-04T18:27:40.999Z</time></trkpt><trkpt lat="27.89802511943936" lon="-15.533379480564959"><ele>621.5714285714286</ele><time>2026-05-04T18:27:47.999Z</time></trkpt><trkpt lat="27.8980895180639" lon="-15.533399667586485"><ele>623.8571428571429</ele><time>2026-05-04T18:27:54.999Z</time></trkpt><trkpt lat="27.898157465706376" lon="-15.53343183258185"><ele>626.1428571428571</ele><time>2026-05-04T18:28:00.999Z</time></trkpt><trkpt lat="27.898224161456444" lon="-15.533453776007885"><ele>628.4285714285714</ele><time>2026-05-04T18:28:06.999Z</time></trkpt><trkpt lat="27.898291501088575" lon="-15.533468134234612"><ele>630.7142857142857</ele><time>2026-05-04T18:28:12.999Z</time></trkpt><trkpt lat="27.898357744260725" lon="-15.53346499984598"><ele>633.0</ele><time>2026-05-04T18:28:20Z</time></trkpt><trkpt lat="27.898429920361423" lon="-15.533478532912211"><ele>635.0</ele><time>2026-05-04T18:28:43Z</time></trkpt><trkpt lat="27.898501091212577" lon="-15.533490869351796"><ele>637.0</ele><time>2026-05-04T18:28:49Z</time></trkpt><trkpt lat="27.898578355491015" lon="-15.533495032354038"><ele>639.0</ele><time>2026-05-04T18:28:55Z</time></trkpt><trkpt lat="27.898643606422198" lon="-15.533496012175352"><ele>641.0</ele><time>2026-05-04T18:29:00Z</time></trkpt><trkpt lat="27.89870946310074" lon="-15.533502846152535"><ele>643.0</ele><time>2026-05-04T18:29:05.999Z</time></trkpt><trkpt lat="27.898771501962617" lon="-15.5335388178588"><ele>645.0</ele><time>2026-05-04T18:29:11.999Z</time></trkpt><trkpt lat="27.898838110330924" lon="-15.533565052719705"><ele>647.0</ele><time>2026-05-04T18:29:18.999Z</time></trkpt><trkpt lat="27.898890084310153" lon="-15.533612790098394"><ele>647.0</ele><time>2026-05-04T18:29:24.999Z</time></trkpt><trkpt lat="27.89895148944842" lon="-15.53365796039284"><ele>647.0</ele><time>2026-05-04T18:29:30.999Z</time></trkpt><trkpt lat="27.899016346062037" lon="-15.533697303750467"><ele>647.0</ele><time>2026-05-04T18:29:36.999Z</time></trkpt><trkpt lat="27.89906550101724" lon="-15.533744334740339"><ele>647.0</ele><time>2026-05-04T18:29:41.999Z</time></trkpt><trkpt lat="27.899115089910683" lon="-15.53379640953222"><ele>647.0</ele><time>2026-05-04T18:29:47.999Z</time></trkpt><trkpt lat="27.89915931697626" lon="-15.533849920256248"><ele>647.0</ele><time>2026-05-04T18:29:53.999Z</time></trkpt><trkpt lat="27.899191704555662" lon="-15.533920844487586"><ele>647.0</ele><time>2026-05-04T18:30:00.999Z</time></trkpt><trkpt lat="27.89923434435194" lon="-15.533986015435364"><ele>645.8571428571429</ele><time>2026-05-04T18:30:07.999Z</time></trkpt><trkpt lat="27.899268842497857" lon="-15.534059034678943"><ele>644.7142857142858</ele><time>2026-05-04T18:30:13.999Z</time></trkpt><trkpt lat="27.89930352680334" lon="-15.534121542564987"><ele>643.5714285714287</ele><time>2026-05-04T18:30:19.999Z</time></trkpt><trkpt lat="27.899330169019876" lon="-15.534197500223566"><ele>642.4285714285714</ele><time>2026-05-04T18:30:26Z</time></trkpt><trkpt lat="27.8993646952355" lon="-15.534264246820152"><ele>641.2857142857143</ele><time>2026-05-04T18:30:32Z</time></trkpt><trkpt lat="27.899393620453495" lon="-15.534341486835771"><ele>640.1428571428572</ele><time>2026-05-04T18:30:39Z</time></trkpt><trkpt lat="27.899420773768853" lon="-15.534414120364325"><ele>639.0</ele><time>2026-05-04T18:30:45Z</time></trkpt><trkpt lat="27.89945648440394" lon="-15.534487997879058"><ele>639.0000000000001</ele><time>2026-05-04T18:30:51Z</time></trkpt><trkpt lat="27.89949097545394" lon="-15.534550996718139"><ele>639.0</ele><time>2026-05-04T18:30:57Z</time></trkpt><trkpt lat="27.89949939709432" lon="-15.534630020267345"><ele>639.0</ele><time>2026-05-04T18:31:03Z</time></trkpt><trkpt lat="27.899475975794466" lon="-15.534699854705822"><ele>639.0</ele><time>2026-05-04T18:31:09Z</time></trkpt><trkpt lat="27.89943409801136" lon="-15.534753077237038"><ele>639.0</ele><time>2026-05-04T18:31:13.999Z</time></trkpt><trkpt lat="27.899370766339533" lon="-15.534782557041343"><ele>639.0000000000001</ele><time>2026-05-04T18:31:19.999Z</time></trkpt><trkpt lat="27.89930656084085" lon="-15.53480065966958"><ele>639.0</ele><time>2026-05-04T18:31:26.999Z</time></trkpt><trkpt lat="27.89924508516528" lon="-15.534823728684769"><ele>636.1428571428572</ele><time>2026-05-04T18:31:33.999Z</time></trkpt><trkpt lat="27.899178904999726" lon="-15.534852971828547"><ele>633.2857142857143</ele><time>2026-05-04T18:31:38.999Z</time></trkpt><trkpt lat="27.899106921565938" lon="-15.534868210454928"><ele>630.4285714285714</ele><time>2026-05-04T18:31:44.999Z</time></trkpt><trkpt lat="27.899040644405847" lon="-15.534885237755606"><ele>627.5714285714287</ele><time>2026-05-04T18:31:51.999Z</time></trkpt><trkpt lat="27.898968889095283" lon="-15.534909853566115"><ele>624.7142857142858</ele><time>2026-05-04T18:31:58.999Z</time></trkpt><trkpt lat="27.898905392277985" lon="-15.53492775761611"><ele>621.8571428571429</ele><time>2026-05-04T18:32:03.999Z</time></trkpt><trkpt lat="27.898842773002794" lon="-15.534950624225187"><ele>619.0</ele><time>2026-05-04T18:32:08.999Z</time></trkpt><trkpt lat="27.898794700112454" lon="-15.535007550633738"><ele>619.0</ele><time>2026-05-04T18:32:16.999Z</time></trkpt><trkpt lat="27.89885706330918" lon="-15.535049602216253"><ele>619.0</ele><time>2026-05-04T18:32:23.999Z</time></trkpt><trkpt lat="27.898913489000353" lon="-15.535093915073281"><ele>619.0</ele><time>2026-05-04T18:32:31Z</time></trkpt><trkpt lat="27.898966771762726" lon="-15.5351420946688"><ele>619.0</ele><time>2026-05-04T18:32:38Z</time></trkpt><trkpt lat="27.898996961824796" lon="-15.535206615022801"><ele>619.0</ele><time>2026-05-04T18:32:45Z</time></trkpt><trkpt lat="27.89900807150356" lon="-15.535277724608132"><ele>619.0</ele><time>2026-05-04T18:32:51Z</time></trkpt><trkpt lat="27.899045459169418" lon="-15.5353383703382"><ele>619.0</ele><time>2026-05-04T18:32:58Z</time></trkpt><trkpt lat="27.8990689554042" lon="-15.535408828743414"><ele>618.8571428571429</ele><time>2026-05-04T18:33:05Z</time></trkpt><trkpt lat="27.899077548123394" lon="-15.53548160652477"><ele>618.7142857142858</ele><time>2026-05-04T18:33:13Z</time></trkpt><trkpt lat="27.899091947629064" lon="-15.535554089903167"><ele>618.5714285714287</ele><time>2026-05-04T18:33:19.999Z</time></trkpt><trkpt lat="27.899107387543022" lon="-15.53562942872074"><ele>618.4285714285714</ele><time>2026-05-04T18:33:26.999Z</time></trkpt><trkpt lat="27.89912732718013" lon="-15.535703146025185"><ele>618.2857142857143</ele><time>2026-05-04T18:33:32.999Z</time></trkpt><trkpt lat="27.899145858042683" lon="-15.535778818293453"><ele>618.1428571428572</ele><time>2026-05-04T18:33:39.999Z</time></trkpt><trkpt lat="27.89916132941421" lon="-15.53585519523069"><ele>618.0</ele><time>2026-05-04T18:33:46.999Z</time></trkpt><trkpt lat="27.899169621879732" lon="-15.535929175706974"><ele>618.0000000000001</ele><time>2026-05-04T18:33:53.999Z</time></trkpt><trkpt lat="27.899197339353652" lon="-15.535994386446287"><ele>618.0</ele><time>2026-05-04T18:33:59.999Z</time></trkpt><trkpt lat="27.899226024846083" lon="-15.536059136165877"><ele>618.0</ele><time>2026-05-04T18:34:05.999Z</time></trkpt><trkpt lat="27.899259122224915" lon="-15.536121604822426"><ele>618.0</ele><time>2026-05-04T18:34:11.999Z</time></trkpt><trkpt lat="27.899306336695673" lon="-15.536186323651402"><ele>618.0</ele><time>2026-05-04T18:34:18.999Z</time></trkpt><trkpt lat="27.899351136891134" lon="-15.536244136785115"><ele>618.0000000000001</ele><time>2026-05-04T18:34:25.999Z</time></trkpt><trkpt lat="27.89940536228163" lon="-15.536286638452143"><ele>618.0</ele><time>2026-05-04T18:34:32.999Z</time></trkpt><trkpt lat="27.899464436813393" lon="-15.536332369582894"><ele>617.1428571428572</ele><time>2026-05-04T18:34:40Z</time></trkpt><trkpt lat="27.899531225250083" lon="-15.53636340212671"><ele>616.2857142857143</ele><time>2026-05-04T18:34:47Z</time></trkpt><trkpt lat="27.899603754797734" lon="-15.536388604377066"><ele>615.4285714285714</ele><time>2026-05-04T18:34:53Z</time></trkpt><trkpt lat="27.899663784557838" lon="-15.536415320933155"><ele>614.5714285714287</ele><time>2026-05-04T18:34:59Z</time></trkpt><trkpt lat="27.899728586438552" lon="-15.536420099782525"><ele>613.7142857142858</ele><time>2026-05-04T18:35:05Z</time></trkpt><trkpt lat="27.8997915266516" lon="-15.536426185694687"><ele>612.8571428571429</ele><time>2026-05-04T18:35:10Z</time></trkpt><trkpt lat="27.899862038746594" lon="-15.536431733435345"><ele>612.0</ele><time>2026-05-04T18:35:17Z</time></trkpt><trkpt lat="27.899929327732842" lon="-15.536416889857104"><ele>612.0</ele><time>2026-05-04T18:35:23Z</time></trkpt><trkpt lat="27.899999107091038" lon="-15.536409864550555"><ele>612.0</ele><time>2026-05-04T18:35:29.999Z</time></trkpt><trkpt lat="27.900065010214885" lon="-15.536402087327838"><ele>612.0</ele><time>2026-05-04T18:35:36.999Z</time></trkpt><trkpt lat="27.900137141787173" lon="-15.536391166886448"><ele>612.0</ele><time>2026-05-04T18:35:43.999Z</time></trkpt><trkpt lat="27.900200651753533" lon="-15.536367456324042"><ele>612.0</ele><time>2026-05-04T18:35:50.999Z</time></trkpt><trkpt lat="27.90026658159247" lon="-15.53636664379255"><ele>612.0</ele><time>2026-05-04T18:35:58.999Z</time></trkpt><trkpt lat="27.900337627295652" lon="-15.536370867384745"><ele>612.0</ele><time>2026-05-04T18:36:08.999Z</time></trkpt><trkpt lat="27.9004049010362" lon="-15.536397245528258"><ele>613.0</ele><time>2026-05-04T18:36:15.999Z</time></trkpt><trkpt lat="27.90047000076593" lon="-15.536430016783468"><ele>614.0</ele><time>2026-05-04T18:36:23.999Z</time></trkpt><trkpt lat="27.90052595171571" lon="-15.536467366256264"><ele>615.0</ele><time>2026-05-04T18:36:32.999Z</time></trkpt><trkpt lat="27.90057683629531" lon="-15.536512046497759"><ele>616.0</ele><time>2026-05-04T18:36:39.999Z</time></trkpt><trkpt lat="27.90063942148578" lon="-15.536545135471009"><ele>617.0</ele><time>2026-05-04T18:36:47Z</time></trkpt><trkpt lat="27.900699267185683" lon="-15.536577902136422"><ele>618.0</ele><time>2026-05-04T18:36:54Z</time></trkpt><trkpt lat="27.900766050631688" lon="-15.5366095870698"><ele>619.0</ele><time>2026-05-04T18:37:01Z</time></trkpt><trkpt lat="27.900821413092775" lon="-15.536646897750579"><ele>619.0</ele><time>2026-05-04T18:37:07Z</time></trkpt><trkpt lat="27.90088726037075" lon="-15.536677639313336"><ele>619.0</ele><time>2026-05-04T18:37:14Z</time></trkpt><trkpt lat="27.90094954095968" lon="-15.536709863038789"><ele>619.0</ele><time>2026-05-04T18:37:21Z</time></trkpt><trkpt lat="27.901006177435686" lon="-15.53675439579904"><ele>619.0</ele><time>2026-05-04T18:37:28Z</time></trkpt><trkpt lat="27.90106061523584" lon="-15.536795356311659"><ele>619.0</ele><time>2026-05-04T18:37:34.999Z</time></trkpt><trkpt lat="27.90111362973879" lon="-15.536844243253688"><ele>619.0</ele><time>2026-05-04T18:37:41.999Z</time></trkpt><trkpt lat="27.901166437702507" lon="-15.536885565700187"><ele>619.0</ele><time>2026-05-04T18:37:48.999Z</time></trkpt><trkpt lat="27.90122021118499" lon="-15.536928939205133"><ele>619.4285714285714</ele><time>2026-05-04T18:37:55.999Z</time></trkpt><trkpt lat="27.90128433740461" lon="-15.536937881152616"><ele>619.8571428571429</ele><time>2026-05-04T18:38:18.999Z</time></trkpt><trkpt lat="27.901334526221838" lon="-15.536986056914875"><ele>620.2857142857142</ele><time>2026-05-04T18:38:25.999Z</time></trkpt><trkpt lat="27.901390226464837" lon="-15.53703198105746"><ele>620.7142857142858</ele><time>2026-05-04T18:38:31.999Z</time></trkpt><trkpt lat="27.901450498736743" lon="-15.537077100516296"><ele>621.1428571428572</ele><time>2026-05-04T18:38:37.999Z</time></trkpt><trkpt lat="27.901518982809613" lon="-15.537096789193813"><ele>621.5714285714286</ele><time>2026-05-04T18:38:43.999Z</time></trkpt><trkpt lat="27.901579550205305" lon="-15.537116904721042"><ele>622.0</ele><time>2026-05-04T18:38:49Z</time></trkpt><trkpt lat="27.90165544474546" lon="-15.537133164379943"><ele>622.0</ele><time>2026-05-04T18:38:56Z</time></trkpt><trkpt lat="27.901723878798617" lon="-15.537148611167034"><ele>622.0</ele><time>2026-05-04T18:39:02Z</time></trkpt><trkpt lat="27.901788925221624" lon="-15.537160100686728"><ele>622.0</ele><time>2026-05-04T18:39:08Z</time></trkpt><trkpt lat="27.901862656942548" lon="-15.537153014406881"><ele>622.0</ele><time>2026-05-04T18:39:19Z</time></trkpt><trkpt lat="27.901928950315018" lon="-15.537179496513462"><ele>622.0</ele><time>2026-05-04T18:39:26Z</time></trkpt><trkpt lat="27.901993140102544" lon="-15.537193532036373"><ele>622.0</ele><time>2026-05-04T18:39:33Z</time></trkpt><trkpt lat="27.902058920029095" lon="-15.537208948157252"><ele>622.0</ele><time>2026-05-04T18:39:40Z</time></trkpt><trkpt lat="27.902129798404513" lon="-15.537206005702892"><ele>622.1428571428571</ele><time>2026-05-04T18:39:46.999Z</time></trkpt><trkpt lat="27.902200071935518" lon="-15.53720139131981"><ele>622.2857142857143</ele><time>2026-05-04T18:39:52.999Z</time></trkpt><trkpt lat="27.90226837464346" lon="-15.537209459998943"><ele>622.4285714285714</ele><time>2026-05-04T18:39:58.999Z</time></trkpt><trkpt lat="27.90233996094839" lon="-15.537202187427097"><ele>622.5714285714286</ele><time>2026-05-04T18:40:05.999Z</time></trkpt><trkpt lat="27.902407482501186" lon="-15.537199538500989"><ele>622.7142857142858</ele><time>2026-05-04T18:40:11.999Z</time></trkpt><trkpt lat="27.902472877941513" lon="-15.53720907016714"><ele>622.8571428571429</ele><time>2026-05-04T18:40:18.999Z</time></trkpt><trkpt lat="27.902536279344073" lon="-15.537213325019854"><ele>623.0</ele><time>2026-05-04T18:40:24.999Z</time></trkpt><trkpt lat="27.90259843238123" lon="-15.537243466622575"><ele>624.5714285714286</ele><time>2026-05-04T18:40:31.999Z</time></trkpt><trkpt lat="27.902660730999866" lon="-15.537268888148478"><ele>626.1428571428571</ele><time>2026-05-04T18:40:38.999Z</time></trkpt><trkpt lat="27.902731974451868" lon="-15.537287816511402"><ele>627.7142857142858</ele><time>2026-05-04T18:40:45.999Z</time></trkpt><trkpt lat="27.90279603769617" lon="-15.537302945144468"><ele>629.2857142857142</ele><time>2026-05-04T18:40:51.999Z</time></trkpt><trkpt lat="27.902862045724095" lon="-15.537292106309307"><ele>630.8571428571429</ele><time>2026-05-04T18:40:59Z</time></trkpt><trkpt lat="27.902931636960584" lon="-15.537282983740045"><ele>632.4285714285714</ele><time>2026-05-04T18:41:06Z</time></trkpt><trkpt lat="27.902993307534402" lon="-15.537265319851846"><ele>634.0</ele><time>2026-05-04T18:41:14Z</time></trkpt><trkpt lat="27.903057646375252" lon="-15.537242360642542"><ele>634.0</ele><time>2026-05-04T18:41:22Z</time></trkpt><trkpt lat="27.90312366149103" lon="-15.537268251843955"><ele>634.0</ele><time>2026-05-04T18:41:30Z</time></trkpt><trkpt lat="27.903197805230867" lon="-15.537273366818594"><ele>634.0</ele><time>2026-05-04T18:41:49.999Z</time></trkpt><trkpt lat="27.9032628221402" lon="-15.53727694110301"><ele>634.0</ele><time>2026-05-04T18:41:59.999Z</time></trkpt><trkpt lat="27.90332982506437" lon="-15.537268097273081"><ele>634.0</ele><time>2026-05-04T18:42:11.999Z</time></trkpt><trkpt lat="27.90339233677769" lon="-15.537235992825565"><ele>634.0</ele><time>2026-05-04T18:42:22.999Z</time></trkpt><trkpt lat="27.90344750139438" lon="-15.537197429786202"><ele>634.0</ele><time>2026-05-04T18:42:34.999Z</time></trkpt><trkpt lat="27.903487495086644" lon="-15.537138814430822"><ele>635.4285714285714</ele><time>2026-05-04T18:42:42.999Z</time></trkpt><trkpt lat="27.903551688189594" lon="-15.537116692488294"><ele>636.8571428571429</ele><time>2026-05-04T18:42:52.999Z</time></trkpt><trkpt lat="27.90358757314632" lon="-15.537175827582217"><ele>638.2857142857142</ele><time>2026-05-04T18:43:00Z</time></trkpt><trkpt lat="27.90364938340414" lon="-15.53721700889925"><ele>639.7142857142858</ele><time>2026-05-04T18:43:08Z</time></trkpt><trkpt lat="27.903719851461357" lon="-15.53721342496949"><ele>641.1428571428571</ele><time>2026-05-04T18:43:14Z</time></trkpt><trkpt lat="27.90378740176808" lon="-15.53720959823257"><ele>642.5714285714286</ele><time>2026-05-04T18:43:20Z</time></trkpt><trkpt lat="27.903855031325662" lon="-15.53722161041639"><ele>644.0</ele><time>2026-05-04T18:43:26Z</time></trkpt><trkpt lat="27.903917689762864" lon="-15.537229876303067"><ele>644.0</ele><time>2026-05-04T18:43:31Z</time></trkpt><trkpt lat="27.903982052148795" lon="-15.53726372634837"><ele>644.0</ele><time>2026-05-04T18:43:38Z</time></trkpt><trkpt lat="27.90403573808414" lon="-15.537300938971784"><ele>644.0</ele><time>2026-05-04T18:43:45Z</time></trkpt><trkpt lat="27.90408479906222" lon="-15.537350347183123"><ele>644.0</ele><time>2026-05-04T18:43:51.999Z</time></trkpt><trkpt lat="27.904133849752682" lon="-15.537402958924073"><ele>644.0</ele><time>2026-05-04T18:43:57.999Z</time></trkpt><trkpt lat="27.904196463982736" lon="-15.537446180174543"><ele>644.0</ele><time>2026-05-04T18:44:05.999Z</time></trkpt><trkpt lat="27.904261831946677" lon="-15.537487996982827"><ele>644.0</ele><time>2026-05-04T18:44:12.999Z</time></trkpt><trkpt lat="27.904314391693276" lon="-15.537532282840733"><ele>645.8571428571429</ele><time>2026-05-04T18:44:18.999Z</time></trkpt><trkpt lat="27.90436602054486" lon="-15.537581466983006"><ele>647.7142857142858</ele><time>2026-05-04T18:44:25.999Z</time></trkpt><trkpt lat="27.904417438233605" lon="-15.537624530852058"><ele>649.5714285714286</ele><time>2026-05-04T18:44:30.999Z</time></trkpt><trkpt lat="27.90447612347772" lon="-15.537673128577929"><ele>651.4285714285714</ele><time>2026-05-04T18:44:38.999Z</time></trkpt><trkpt lat="27.904533034550372" lon="-15.53771397120058"><ele>653.2857142857143</ele><time>2026-05-04T18:44:44.999Z</time></trkpt><trkpt lat="27.904587319317127" lon="-15.53775247652086"><ele>655.1428571428571</ele><time>2026-05-04T18:44:50.999Z</time></trkpt><trkpt lat="27.904640321661418" lon="-15.537804110786302"><ele>657.0</ele><time>2026-05-04T18:44:56.999Z</time></trkpt><trkpt lat="27.904695217348255" lon="-15.537855311698289"><ele>656.7142857142857</ele><time>2026-05-04T18:45:03.999Z</time></trkpt><trkpt lat="27.904743804739756" lon="-15.537914801405215"><ele>656.4285714285714</ele><time>2026-05-04T18:45:11Z</time></trkpt><trkpt lat="27.904788147967476" lon="-15.537968599121221"><ele>656.1428571428571</ele><time>2026-05-04T18:45:18Z</time></trkpt><trkpt lat="27.90480042703389" lon="-15.538042897845346"><ele>655.8571428571429</ele><time>2026-05-04T18:45:27Z</time></trkpt><trkpt lat="27.904819804432222" lon="-15.538114864577677"><ele>655.5714285714286</ele><time>2026-05-04T18:45:34Z</time></trkpt><trkpt lat="27.904859555545915" lon="-15.538188420653478"><ele>655.2857142857143</ele><time>2026-05-04T18:45:42Z</time></trkpt><trkpt lat="27.90490437912705" lon="-15.53825841029769"><ele>655.0</ele><time>2026-05-04T18:45:52Z</time></trkpt><trkpt lat="27.904958412453478" lon="-15.538311897064569"><ele>655.0</ele><time>2026-05-04T18:46:00.999Z</time></trkpt><trkpt lat="27.905024675885336" lon="-15.538345136020258"><ele>655.0</ele><time>2026-05-04T18:46:11.999Z</time></trkpt><trkpt lat="27.90508578815462" lon="-15.538362840928679"><ele>655.0</ele><time>2026-05-04T18:46:19.999Z</time></trkpt><trkpt lat="27.905140945592358" lon="-15.53840446344443"><ele>655.0</ele><time>2026-05-04T18:46:29.999Z</time></trkpt><trkpt lat="27.905206242950754" lon="-15.538407349731038"><ele>655.0</ele><time>2026-05-04T18:48:59.999Z</time></trkpt><trkpt lat="27.90526003204636" lon="-15.538451716236715"><ele>655.0</ele><time>2026-05-04T18:49:05.999Z</time></trkpt><trkpt lat="27.90532146900056" lon="-15.538479423817709"><ele>655.0</ele><time>2026-05-04T18:49:13.999Z</time></trkpt><trkpt lat="27.905384248845856" lon="-15.538512347107817"><ele>655.4285714285714</ele><time>2026-05-04T18:49:22Z</time></trkpt><trkpt lat="27.90544204459198" lon="-15.538541193365782"><ele>655.8571428571429</ele><time>2026-05-04T18:49:29Z</time></trkpt><trkpt lat="27.90550338693423" lon="-15.538573167826758"><ele>656.2857142857142</ele><time>2026-05-04T18:49:36Z</time></trkpt><trkpt lat="27.905573001266117" lon="-15.538605134298075"><ele>656.7142857142858</ele><time>2026-05-04T18:49:44Z</time></trkpt><trkpt lat="27.90563153188503" lon="-15.53863458093898"><ele>657.1428571428571</ele><time>2026-05-04T18:49:51Z</time></trkpt><trkpt lat="27.905671513736866" lon="-15.538690611578563"><ele>657.5714285714286</ele><time>2026-05-04T18:49:58Z</time></trkpt><trkpt lat="27.905723730331268" lon="-15.538733216472082"><ele>658.0</ele><time>2026-05-04T18:50:05Z</time></trkpt><trkpt lat="27.905780662870043" lon="-15.538766824161753"><ele>658.0</ele><time>2026-05-04T18:50:09.999Z</time></trkpt><trkpt lat="27.905845080500903" lon="-15.538798827011966"><ele>658.0</ele><time>2026-05-04T18:50:15.999Z</time></trkpt><trkpt lat="27.905913079514434" lon="-15.538831161091185"><ele>658.0</ele><time>2026-05-04T18:50:21.999Z</time></trkpt><trkpt lat="27.905970583884923" lon="-15.538866671830348"><ele>658.0</ele><time>2026-05-04T18:50:27.999Z</time></trkpt><trkpt lat="27.90603230320224" lon="-15.538890440407073"><ele>658.0</ele><time>2026-05-04T18:50:35.999Z</time></trkpt><trkpt lat="27.906097425924187" lon="-15.538886709189573"><ele>658.0</ele><time>2026-05-04T18:50:42.999Z</time></trkpt><trkpt lat="27.906160343856502" lon="-15.53889297006722"><ele>658.0</ele><time>2026-05-04T18:50:50.999Z</time></trkpt><trkpt lat="27.9062292900028" lon="-15.538908600467966"><ele>658.8571428571429</ele><time>2026-05-04T18:50:58.999Z</time></trkpt><trkpt lat="27.906296107899642" lon="-15.538930135595677"><ele>659.7142857142858</ele><time>2026-05-04T18:51:05.999Z</time></trkpt><trkpt lat="27.90634830070921" lon="-15.538985207150558"><ele>660.5714285714286</ele><time>2026-05-04T18:51:13.999Z</time></trkpt><trkpt lat="27.90641134488985" lon="-15.53902405334327"><ele>661.4285714285714</ele><time>2026-05-04T18:51:21.999Z</time></trkpt><trkpt lat="27.906456823323737" lon="-15.539077207515614"><ele>662.2857142857143</ele><time>2026-05-04T18:51:39Z</time></trkpt><trkpt lat="27.906484388073135" lon="-15.539144946824313"><ele>663.1428571428571</ele><time>2026-05-04T18:51:46Z</time></trkpt><trkpt lat="27.90649703566611" lon="-15.539222378104181"><ele>664.0</ele><time>2026-05-04T18:51:53Z</time></trkpt><trkpt lat="27.906518601038556" lon="-15.539292899654438"><ele>664.0</ele><time>2026-05-04T18:51:58Z</time></trkpt><trkpt lat="27.906540898933216" lon="-15.539370226639077"><ele>664.0</ele><time>2026-05-04T18:52:04Z</time></trkpt><trkpt lat="27.906584126608752" lon="-15.539428688790794"><ele>664.0</ele><time>2026-05-04T18:52:09Z</time></trkpt><trkpt lat="27.906640177956117" lon="-15.539490379176696"><ele>664.0</ele><time>2026-05-04T18:52:14.999Z</time></trkpt><trkpt lat="27.90670578605385" lon="-15.539533297774863"><ele>664.0</ele><time>2026-05-04T18:52:20.999Z</time></trkpt><trkpt lat="27.906775151605256" lon="-15.539542149514942"><ele>664.0</ele><time>2026-05-04T18:52:26.999Z</time></trkpt><trkpt lat="27.906838783100334" lon="-15.539548885973948"><ele>664.0</ele><time>2026-05-04T18:52:31.999Z</time></trkpt><trkpt lat="27.906910753275188" lon="-15.539530245520538"><ele>664.7142857142857</ele><time>2026-05-04T18:52:38.999Z</time></trkpt><trkpt lat="27.90697644991009" lon="-15.53951763692314"><ele>665.4285714285714</ele><time>2026-05-04T18:52:44.999Z</time></trkpt><trkpt lat="27.90704648676952" lon="-15.539487930179307"><ele>666.1428571428571</ele><time>2026-05-04T18:52:50.999Z</time></trkpt><trkpt lat="27.907109421212887" lon="-15.539467669793467"><ele>666.8571428571429</ele><time>2026-05-04T18:52:56.999Z</time></trkpt><trkpt lat="27.90717670746618" lon="-15.539448053954114"><ele>667.5714285714286</ele><time>2026-05-04T18:53:03.999Z</time></trkpt><trkpt lat="27.90724351716041" lon="-15.539411231680349"><ele>668.2857142857143</ele><time>2026-05-04T18:53:08.999Z</time></trkpt><trkpt lat="27.907300316923923" lon="-15.53937316996659"><ele>669.0</ele><time>2026-05-04T18:53:14.999Z</time></trkpt><trkpt lat="27.90735777992576" lon="-15.539331454552977"><ele>669.0</ele><time>2026-05-04T18:53:20.999Z</time></trkpt><trkpt lat="27.907417514779386" lon="-15.53929996798251"><ele>669.0</ele><time>2026-05-04T18:53:26.999Z</time></trkpt><trkpt lat="27.907477609837475" lon="-15.53926526666672"><ele>669.0</ele><time>2026-05-04T18:53:33Z</time></trkpt><trkpt lat="27.907550108332266" lon="-15.53924729716285"><ele>669.0</ele><time>2026-05-04T18:53:40Z</time></trkpt><trkpt lat="27.90761974536581" lon="-15.539254356229156"><ele>669.0</ele><time>2026-05-04T18:53:46Z</time></trkpt><trkpt lat="27.907689063155257" lon="-15.539280330193503"><ele>669.0</ele><time>2026-05-04T18:53:53Z</time></trkpt><trkpt lat="27.907758118304667" lon="-15.539293628248627"><ele>669.0</ele><time>2026-05-04T18:54:00Z</time></trkpt><trkpt lat="27.907819152772806" lon="-15.539311579119046"><ele>670.4285714285714</ele><time>2026-05-04T18:54:07Z</time></trkpt><trkpt lat="27.907835797280647" lon="-15.539385988245222"><ele>671.8571428571429</ele><time>2026-05-04T18:54:17Z</time></trkpt><trkpt lat="27.9077999950629" lon="-15.539451666435514"><ele>673.2857142857142</ele><time>2026-05-04T18:54:25.999Z</time></trkpt><trkpt lat="27.90777238078105" lon="-15.539521772172211"><ele>674.7142857142858</ele><time>2026-05-04T18:54:34.999Z</time></trkpt><trkpt lat="27.90775619183756" lon="-15.539595025481331"><ele>676.1428571428571</ele><time>2026-05-04T18:54:39.999Z</time></trkpt><trkpt lat="27.907731269317356" lon="-15.53966930280187"><ele>677.5714285714286</ele><time>2026-05-04T18:54:45.999Z</time></trkpt><trkpt lat="27.907718041975972" lon="-15.539750455353612"><ele>679.0</ele><time>2026-05-04T18:54:50.999Z</time></trkpt><trkpt lat="27.907706240299415" lon="-15.539831969356957"><ele>679.0</ele><time>2026-05-04T18:54:55.999Z</time></trkpt><trkpt lat="27.90770096198789" lon="-15.539907646801765"><ele>679.0</ele><time>2026-05-04T18:55:01.999Z</time></trkpt><trkpt lat="27.90769270567241" lon="-15.539979699713413"><ele>679.0</ele><time>2026-05-04T18:55:08.999Z</time></trkpt><trkpt lat="27.907726578562965" lon="-15.540039967990687"><ele>679.0</ele><time>2026-05-04T18:55:20.999Z</time></trkpt><trkpt lat="27.907787683818302" lon="-15.540022543336562"><ele>679.0</ele><time>2026-05-04T18:55:32.999Z</time></trkpt><trkpt lat="27.907847618589614" lon="-15.539997035272387"><ele>679.0</ele><time>2026-05-04T18:55:59Z</time></trkpt><trkpt lat="27.907864840139315" lon="-15.540067096728274"><ele>679.0</ele><time>2026-05-04T18:56:14Z</time></trkpt><trkpt lat="27.907908556145646" lon="-15.54012686773955"><ele>679.0</ele><time>2026-05-04T18:56:34Z</time></trkpt><trkpt lat="27.90797048174687" lon="-15.540162321934417"><ele>679.0</ele><time>2026-05-04T18:56:42.999Z</time></trkpt><trkpt lat="27.908028805021463" lon="-15.540194430424021"><ele>679.0</ele><time>2026-05-04T18:56:51.999Z</time></trkpt><trkpt lat="27.908094705140986" lon="-15.540212909422626"><ele>679.0</ele><time>2026-05-04T18:57:04.999Z</time></trkpt><trkpt lat="27.90815660731542" lon="-15.540174420711386"><ele>679.0</ele><time>2026-05-04T18:57:16.999Z</time></trkpt><trkpt lat="27.90820912304044" lon="-15.540119701228818"><ele>679.0</ele><time>2026-05-04T18:57:35.999Z</time></trkpt><trkpt lat="27.908251105729082" lon="-15.540058248077646"><ele>679.0</ele><time>2026-05-04T18:57:43Z</time></trkpt><trkpt lat="27.90830114525526" lon="-15.540013735227346"><ele>679.0</ele><time>2026-05-04T18:57:51Z</time></trkpt><trkpt lat="27.908370345283128" lon="-15.54000901113948"><ele>679.0</ele><time>2026-05-04T18:57:57Z</time></trkpt><trkpt lat="27.90843619709977" lon="-15.540034014962323"><ele>679.0</ele><time>2026-05-04T18:58:04Z</time></trkpt><trkpt lat="27.908501399310435" lon="-15.54005770350713"><ele>679.0</ele><time>2026-05-04T18:58:10Z</time></trkpt><trkpt lat="27.908564450651866" lon="-15.540068450400609"><ele>679.0</ele><time>2026-05-04T18:58:16Z</time></trkpt><trkpt lat="27.90862334259088" lon="-15.54009992654942"><ele>679.0</ele><time>2026-05-04T18:58:24Z</time></trkpt><trkpt lat="27.908680904500468" lon="-15.540129893322426"><ele>679.0</ele><time>2026-05-04T18:58:30Z</time></trkpt><trkpt lat="27.90875453759681" lon="-15.540154912822661"><ele>679.7142857142857</ele><time>2026-05-04T18:58:36Z</time></trkpt><trkpt lat="27.9088145996303" lon="-15.540180112101817"><ele>680.4285714285714</ele><time>2026-05-04T18:58:41.999Z</time></trkpt><trkpt lat="27.908873185535853" lon="-15.54021395457465"><ele>681.1428571428571</ele><time>2026-05-04T18:58:49.999Z</time></trkpt><trkpt lat="27.908923098854856" lon="-15.54027373852817"><ele>681.8571428571429</ele><time>2026-05-04T18:58:57.999Z</time></trkpt><trkpt lat="27.908960539129936" lon="-15.540350131567019"><ele>682.5714285714286</ele><time>2026-05-04T18:59:06.999Z</time></trkpt><trkpt lat="27.90901018599189" lon="-15.540409527497737"><ele>683.2857142857142</ele><time>2026-05-04T18:59:13.999Z</time></trkpt><trkpt lat="27.909057678880895" lon="-15.540462308687562"><ele>684.0</ele><time>2026-05-04T18:59:19.999Z</time></trkpt><trkpt lat="27.909103873027775" lon="-15.54052515251924"><ele>683.9999999999999</ele><time>2026-05-04T18:59:25.999Z</time></trkpt><trkpt lat="27.90914761823031" lon="-15.540577596595345"><ele>684.0</ele><time>2026-05-04T18:59:31.999Z</time></trkpt><trkpt lat="27.909201816055354" lon="-15.540636330539842"><ele>684.0</ele><time>2026-05-04T18:59:37.999Z</time></trkpt><trkpt lat="27.909265537371716" lon="-15.540647060409764"><ele>684.0</ele><time>2026-05-04T18:59:42.999Z</time></trkpt><trkpt lat="27.909330693755198" lon="-15.540640434176433"><ele>684.0</ele><time>2026-05-04T18:59:49Z</time></trkpt><trkpt lat="27.90939655659771" lon="-15.540615283286186"><ele>683.9999999999999</ele><time>2026-05-04T18:59:54Z</time></trkpt><trkpt lat="27.909463133484905" lon="-15.540576938833851"><ele>684.0</ele><time>2026-05-04T19:00:01Z</time></trkpt><trkpt lat="27.90953426402741" lon="-15.540534699430157"><ele>691.0</ele><time>2026-05-04T19:00:07Z</time></trkpt><trkpt lat="27.90960916442108" lon="-15.540520173804838"><ele>691.0</ele><time>2026-05-04T19:00:54.999Z</time></trkpt></trkseg></trk></gpx>